<?xml version="1.0" encoding="UTF-8" standalone="no" ?>
<gpx xmlns="http://www.topografix.com/GPX/1/1" xmlns:xsi="http://www.w3.org/2001/XMLSchema-instance" xsi:schemaLocation="http://www.topografix.com/GPX/1/1 http://www.topografix.com/GPX/1/1/gpx.xsd" version="1.1" creator="VisuGPX - https://www.visugpx.com">
  <metadata>
    <name>Tour Charteuse Sud</name>
  </metadata>
  <trk>
    <name><![CDATA[Tour de Charteuse sud]]></name>
    <trkseg>
      <trkpt lat="45.23555" lon="5.75085">
        <ele>803.2</ele>
        <time>2020-06-27T03:00:00.000Z</time>
      </trkpt>
      <trkpt lat="45.23584" lon="5.75126">
        <ele>806.5</ele>
        <time>2020-06-27T03:00:41.926Z</time>
      </trkpt>
      <trkpt lat="45.2353" lon="5.7516">
        <ele>811.8</ele>
        <time>2020-06-27T03:01:47.313Z</time>
      </trkpt>
      <trkpt lat="45.23466" lon="5.7522">
        <ele>830.2</ele>
        <time>2020-06-27T03:04:05.835Z</time>
      </trkpt>
      <trkpt lat="45.23421" lon="5.7528">
        <ele>854.1</ele>
        <time>2020-06-27T03:05:57.332Z</time>
      </trkpt>
      <trkpt lat="45.23412" lon="5.75304">
        <ele>850.6</ele>
        <time>2020-06-27T03:06:00.143Z</time>
      </trkpt>
      <trkpt lat="45.23395" lon="5.75338">
        <ele>873.6</ele>
        <time>2020-06-27T03:06:53.184Z</time>
      </trkpt>
      <trkpt lat="45.23333" lon="5.75381">
        <ele>861.7</ele>
        <time>2020-06-27T03:07:03.314Z</time>
      </trkpt>
      <trkpt lat="45.23288" lon="5.75441">
        <ele>877.7</ele>
        <time>2020-06-27T03:08:54.812Z</time>
      </trkpt>
      <trkpt lat="45.23268" lon="5.75497">
        <ele>877.1</ele>
        <time>2020-06-27T03:09:04.765Z</time>
      </trkpt>
      <trkpt lat="45.23333" lon="5.75458">
        <ele>890.7</ele>
        <time>2020-06-27T03:11:12.223Z</time>
      </trkpt>
      <trkpt lat="45.23419" lon="5.75463">
        <ele>937.1</ele>
        <time>2020-06-27T03:13:47.693Z</time>
      </trkpt>
      <trkpt lat="45.2348" lon="5.75476">
        <ele>945.2</ele>
        <time>2020-06-27T03:15:35.801Z</time>
      </trkpt>
      <trkpt lat="45.23457" lon="5.75508">
        <ele>977.2</ele>
        <time>2020-06-27T03:16:33.962Z</time>
      </trkpt>
      <trkpt lat="45.23403" lon="5.75518">
        <ele>958.2</ele>
        <time>2020-06-27T03:16:41.957Z</time>
      </trkpt>
      <trkpt lat="45.23341" lon="5.75589">
        <ele>966.1</ele>
        <time>2020-06-27T03:18:18.190Z</time>
      </trkpt>
      <trkpt lat="45.23336" lon="5.75606">
        <ele>976.4</ele>
        <time>2020-06-27T03:18:41.624Z</time>
      </trkpt>
      <trkpt lat="45.23401" lon="5.75574">
        <ele>981.4</ele>
        <time>2020-06-27T03:19:47.788Z</time>
      </trkpt>
      <trkpt lat="45.2348" lon="5.75585">
        <ele>1027.1</ele>
        <time>2020-06-27T03:22:11.169Z</time>
      </trkpt>
      <trkpt lat="45.2353" lon="5.75603">
        <ele>1041.6</ele>
        <time>2020-06-27T03:23:44.340Z</time>
      </trkpt>
      <trkpt lat="45.23496" lon="5.75626">
        <ele>1038.2</ele>
        <time>2020-06-27T03:23:49.869Z</time>
      </trkpt>
      <trkpt lat="45.23457" lon="5.75626">
        <ele>1034.6</ele>
        <time>2020-06-27T03:23:55.594Z</time>
      </trkpt>
      <trkpt lat="45.23426" lon="5.75651">
        <ele>1039.3</ele>
        <time>2020-06-27T03:24:58.535Z</time>
      </trkpt>
      <trkpt lat="45.23398" lon="5.75703">
        <ele>1041.5</ele>
        <time>2020-06-27T03:25:35.727Z</time>
      </trkpt>
      <trkpt lat="45.23396" lon="5.75728">
        <ele>1050.9</ele>
        <time>2020-06-27T03:26:07.732Z</time>
      </trkpt>
      <trkpt lat="45.23435" lon="5.75693">
        <ele>1072.2</ele>
        <time>2020-06-27T03:27:31.065Z</time>
      </trkpt>
      <trkpt lat="45.23421" lon="5.75741">
        <ele>1086.8</ele>
        <time>2020-06-27T03:28:37.151Z</time>
      </trkpt>
      <trkpt lat="45.234" lon="5.75798">
        <ele>1091.2</ele>
        <time>2020-06-27T03:29:30.817Z</time>
      </trkpt>
      <trkpt lat="45.2339" lon="5.75826">
        <ele>1096.9</ele>
        <time>2020-06-27T03:30:10.751Z</time>
      </trkpt>
      <trkpt lat="45.23362" lon="5.75854">
        <ele>1110.2</ele>
        <time>2020-06-27T03:31:12.609Z</time>
      </trkpt>
      <trkpt lat="45.23358" lon="5.75908">
        <ele>1114.6</ele>
        <time>2020-06-27T03:32:07.190Z</time>
      </trkpt>
      <trkpt lat="45.23378" lon="5.7594">
        <ele>1138.3</ele>
        <time>2020-06-27T03:33:01.613Z</time>
      </trkpt>
      <trkpt lat="45.23388" lon="5.75898">
        <ele>1122.9</ele>
        <time>2020-06-27T03:33:06.197Z</time>
      </trkpt>
      <trkpt lat="45.23424" lon="5.75866">
        <ele>1146.1</ele>
        <time>2020-06-27T03:34:22.912Z</time>
      </trkpt>
      <trkpt lat="45.23584" lon="5.7579">
        <ele>1193.6</ele>
        <time>2020-06-27T03:39:27.656Z</time>
      </trkpt>
      <trkpt lat="45.23596" lon="5.75793">
        <ele>1195.4</ele>
        <time>2020-06-27T03:39:49.665Z</time>
      </trkpt>
      <trkpt lat="45.23559" lon="5.75863">
        <ele>1203.1</ele>
        <time>2020-06-27T03:41:28.808Z</time>
      </trkpt>
      <trkpt lat="45.23508" lon="5.76009">
        <ele>1241.4</ele>
        <time>2020-06-27T03:44:56.109Z</time>
      </trkpt>
      <trkpt lat="45.23626" lon="5.75936">
        <ele>1262</ele>
        <time>2020-06-27T03:48:48.597Z</time>
      </trkpt>
      <trkpt lat="45.23596" lon="5.76013">
        <ele>1294.8</ele>
        <time>2020-06-27T03:50:40.529Z</time>
      </trkpt>
      <trkpt lat="45.23561" lon="5.76066">
        <ele>1298.5</ele>
        <time>2020-06-27T03:51:29.600Z</time>
      </trkpt>
      <trkpt lat="45.23584" lon="5.76066">
        <ele>1324.1</ele>
        <time>2020-06-27T03:52:11.144Z</time>
      </trkpt>
      <trkpt lat="45.23551" lon="5.76108">
        <ele>1320.7</ele>
        <time>2020-06-27T03:52:17.650Z</time>
      </trkpt>
      <trkpt lat="45.23575" lon="5.76108">
        <ele>1327.1</ele>
        <time>2020-06-27T03:53:01.001Z</time>
      </trkpt>
      <trkpt lat="45.23539" lon="5.7616">
        <ele>1321.6</ele>
        <time>2020-06-27T03:53:08.540Z</time>
      </trkpt>
      <trkpt lat="45.23567" lon="5.76177">
        <ele>1329.5</ele>
        <time>2020-06-27T03:54:03.544Z</time>
      </trkpt>
      <trkpt lat="45.23575" lon="5.76217">
        <ele>1323.4</ele>
        <time>2020-06-27T03:54:07.843Z</time>
      </trkpt>
      <trkpt lat="45.23539" lon="5.76269">
        <ele>1313.5</ele>
        <time>2020-06-27T03:54:15.382Z</time>
      </trkpt>
      <trkpt lat="45.23544" lon="5.7634">
        <ele>1304.1</ele>
        <time>2020-06-27T03:54:22.759Z</time>
      </trkpt>
      <trkpt lat="45.23542" lon="5.76384">
        <ele>1303.6</ele>
        <time>2020-06-27T03:54:29.529Z</time>
      </trkpt>
      <trkpt lat="45.23504" lon="5.76414">
        <ele>1302.3</ele>
        <time>2020-06-27T03:54:37.636Z</time>
      </trkpt>
      <trkpt lat="45.23546" lon="5.76552">
        <ele>1303.5</ele>
        <time>2020-06-27T03:55:32.957Z</time>
      </trkpt>
      <trkpt lat="45.23567" lon="5.76697">
        <ele>1307.9</ele>
        <time>2020-06-27T03:56:52.544Z</time>
      </trkpt>
      <trkpt lat="45.23614" lon="5.76823">
        <ele>1295.1</ele>
        <time>2020-06-27T03:57:07.285Z</time>
      </trkpt>
      <trkpt lat="45.23655" lon="5.76969">
        <ele>1303.8</ele>
        <time>2020-06-27T03:58:58.819Z</time>
      </trkpt>
      <trkpt lat="45.23704" lon="5.77087">
        <ele>1293.8</ele>
        <time>2020-06-27T03:59:12.982Z</time>
      </trkpt>
      <trkpt lat="45.23768" lon="5.77171">
        <ele>1279.4</ele>
        <time>2020-06-27T03:59:25.776Z</time>
      </trkpt>
      <trkpt lat="45.23813" lon="5.7721">
        <ele>1265</ele>
        <time>2020-06-27T03:59:33.516Z</time>
      </trkpt>
      <trkpt lat="45.23865" lon="5.77353">
        <ele>1154</ele>
        <time>2020-06-27T03:59:50.154Z</time>
      </trkpt>
      <trkpt lat="45.23955" lon="5.77449">
        <ele>1206.2</ele>
        <time>2020-06-27T04:03:13.467Z</time>
      </trkpt>
      <trkpt lat="45.24032" lon="5.7756">
        <ele>1247.9</ele>
        <time>2020-06-27T04:06:31.647Z</time>
      </trkpt>
      <trkpt lat="45.24134" lon="5.77701">
        <ele>1289.9</ele>
        <time>2020-06-27T04:10:48.754Z</time>
      </trkpt>
      <trkpt lat="45.24218" lon="5.77821">
        <ele>1309.4</ele>
        <time>2020-06-27T04:14:23.961Z</time>
      </trkpt>
      <trkpt lat="45.2429" lon="5.77895">
        <ele>1320.6</ele>
        <time>2020-06-27T04:16:48.955Z</time>
      </trkpt>
      <trkpt lat="45.24349" lon="5.77935">
        <ele>1328.9</ele>
        <time>2020-06-27T04:18:36.934Z</time>
      </trkpt>
      <trkpt lat="45.24381" lon="5.78038">
        <ele>1308.6</ele>
        <time>2020-06-27T04:18:48.572Z</time>
      </trkpt>
      <trkpt lat="45.24424" lon="5.7808">
        <ele>1322.3</ele>
        <time>2020-06-27T04:20:22.836Z</time>
      </trkpt>
      <trkpt lat="45.24516" lon="5.78211">
        <ele>1319</ele>
        <time>2020-06-27T04:20:48.351Z</time>
      </trkpt>
      <trkpt lat="45.2457" lon="5.78302">
        <ele>1318</ele>
        <time>2020-06-27T04:21:07.610Z</time>
      </trkpt>
      <trkpt lat="45.24631" lon="5.78366">
        <ele>1314.6</ele>
        <time>2020-06-27T04:21:19.833Z</time>
      </trkpt>
      <trkpt lat="45.247" lon="5.78388">
        <ele>1324.7</ele>
        <time>2020-06-27T04:23:27.567Z</time>
      </trkpt>
      <trkpt lat="45.24775" lon="5.78402">
        <ele>1310.1</ele>
        <time>2020-06-27T04:23:38.673Z</time>
      </trkpt>
      <trkpt lat="45.24788" lon="5.7839">
        <ele>1306.9</ele>
        <time>2020-06-27T04:23:40.949Z</time>
      </trkpt>
      <trkpt lat="45.24847" lon="5.78404">
        <ele>1291.8</ele>
        <time>2020-06-27T04:23:49.731Z</time>
      </trkpt>
      <trkpt lat="45.24921" lon="5.78438">
        <ele>1276.7</ele>
        <time>2020-06-27T04:24:01.150Z</time>
      </trkpt>
      <trkpt lat="45.24974" lon="5.78458">
        <ele>1271.5</ele>
        <time>2020-06-27T04:24:09.200Z</time>
      </trkpt>
      <trkpt lat="45.25022" lon="5.7849">
        <ele>1255.5</ele>
        <time>2020-06-27T04:24:16.985Z</time>
      </trkpt>
      <trkpt lat="45.25091" lon="5.7854">
        <ele>1251.8</ele>
        <time>2020-06-27T04:24:29.145Z</time>
      </trkpt>
      <trkpt lat="45.25205" lon="5.78558">
        <ele>1231.9</ele>
        <time>2020-06-27T04:24:45.985Z</time>
      </trkpt>
      <trkpt lat="45.25241" lon="5.78552">
        <ele>1227.3</ele>
        <time>2020-06-27T04:24:51.306Z</time>
      </trkpt>
      <trkpt lat="45.25267" lon="5.7855">
        <ele>1212.9</ele>
        <time>2020-06-27T04:24:55.129Z</time>
      </trkpt>
      <trkpt lat="45.25252" lon="5.7847">
        <ele>1195.3</ele>
        <time>2020-06-27T04:25:03.685Z</time>
      </trkpt>
      <trkpt lat="45.25283" lon="5.78464">
        <ele>1192</ele>
        <time>2020-06-27T04:25:08.279Z</time>
      </trkpt>
      <trkpt lat="45.25262" lon="5.78364">
        <ele>1170.9</ele>
        <time>2020-06-27T04:25:19.064Z</time>
      </trkpt>
      <trkpt lat="45.25308" lon="5.78336">
        <ele>1166</ele>
        <time>2020-06-27T04:25:26.411Z</time>
      </trkpt>
      <trkpt lat="45.2527" lon="5.78239">
        <ele>1134.4</ele>
        <time>2020-06-27T04:25:37.884Z</time>
      </trkpt>
      <trkpt lat="45.25267" lon="5.78159">
        <ele>1115.7</ele>
        <time>2020-06-27T04:25:46.164Z</time>
      </trkpt>
      <trkpt lat="45.25324" lon="5.78121">
        <ele>1107.6</ele>
        <time>2020-06-27T04:25:55.408Z</time>
      </trkpt>
      <trkpt lat="45.25374" lon="5.78103">
        <ele>1092.5</ele>
        <time>2020-06-27T04:26:02.981Z</time>
      </trkpt>
      <trkpt lat="45.25425" lon="5.78089">
        <ele>1075.3</ele>
        <time>2020-06-27T04:26:10.607Z</time>
      </trkpt>
      <trkpt lat="45.25456" lon="5.78097">
        <ele>1070.1</ele>
        <time>2020-06-27T04:26:15.232Z</time>
      </trkpt>
      <trkpt lat="45.25503" lon="5.78135">
        <ele>1055.5</ele>
        <time>2020-06-27T04:26:23.172Z</time>
      </trkpt>
      <trkpt lat="45.25534" lon="5.78107">
        <ele>1049.6</ele>
        <time>2020-06-27T04:26:28.565Z</time>
      </trkpt>
      <trkpt lat="45.25568" lon="5.78141">
        <ele>1049.7</ele>
        <time>2020-06-27T04:26:48.475Z</time>
      </trkpt>
      <trkpt lat="45.25594" lon="5.78155">
        <ele>1039.1</ele>
        <time>2020-06-27T04:26:52.557Z</time>
      </trkpt>
      <trkpt lat="45.25627" lon="5.78153">
        <ele>1028.6</ele>
        <time>2020-06-27T04:26:57.406Z</time>
      </trkpt>
      <trkpt lat="45.25642" lon="5.78149">
        <ele>1025.2</ele>
        <time>2020-06-27T04:26:59.647Z</time>
      </trkpt>
      <trkpt lat="45.25693" lon="5.78139">
        <ele>1007.6</ele>
        <time>2020-06-27T04:27:07.206Z</time>
      </trkpt>
      <trkpt lat="45.25717" lon="5.78107">
        <ele>1003.7</ele>
        <time>2020-06-27T04:27:12.038Z</time>
      </trkpt>
      <trkpt lat="45.25749" lon="5.78061">
        <ele>997.2</ele>
        <time>2020-06-27T04:27:18.721Z</time>
      </trkpt>
      <trkpt lat="45.25783" lon="5.77975">
        <ele>1000.6</ele>
        <time>2020-06-27T04:28:15.193Z</time>
      </trkpt>
      <trkpt lat="45.25803" lon="5.77921">
        <ele>1001.4</ele>
        <time>2020-06-27T04:28:39.445Z</time>
      </trkpt>
      <trkpt lat="45.25862" lon="5.77907">
        <ele>1005.4</ele>
        <time>2020-06-27T04:29:34.513Z</time>
      </trkpt>
      <trkpt lat="45.25904" lon="5.77845">
        <ele>1007.3</ele>
        <time>2020-06-27T04:30:14.313Z</time>
      </trkpt>
      <trkpt lat="45.25935" lon="5.77829">
        <ele>1008.1</ele>
        <time>2020-06-27T04:30:34.170Z</time>
      </trkpt>
      <trkpt lat="45.25979" lon="5.77913">
        <ele>1014.5</ele>
        <time>2020-06-27T04:31:53.720Z</time>
      </trkpt>
      <trkpt lat="45.26031" lon="5.77977">
        <ele>1030.6</ele>
        <time>2020-06-27T04:33:57.991Z</time>
      </trkpt>
      <trkpt lat="45.26096" lon="5.78037">
        <ele>1048.1</ele>
        <time>2020-06-27T04:36:18.005Z</time>
      </trkpt>
      <trkpt lat="45.26133" lon="5.78099">
        <ele>1053.3</ele>
        <time>2020-06-27T04:37:21.998Z</time>
      </trkpt>
      <trkpt lat="45.26144" lon="5.78133">
        <ele>1054.5</ele>
        <time>2020-06-27T04:37:42.955Z</time>
      </trkpt>
      <trkpt lat="45.26182" lon="5.78149">
        <ele>1062</ele>
        <time>2020-06-27T04:38:54.545Z</time>
      </trkpt>
      <trkpt lat="45.26243" lon="5.78211">
        <ele>1069.8</ele>
        <time>2020-06-27T04:40:29.584Z</time>
      </trkpt>
      <trkpt lat="45.26336" lon="5.78264">
        <ele>1092.9</ele>
        <time>2020-06-27T04:43:30.578Z</time>
      </trkpt>
      <trkpt lat="45.26451" lon="5.7834">
        <ele>1107.9</ele>
        <time>2020-06-27T04:46:38.480Z</time>
      </trkpt>
      <trkpt lat="45.26516" lon="5.78452">
        <ele>1126.3</ele>
        <time>2020-06-27T04:49:43.030Z</time>
      </trkpt>
      <trkpt lat="45.26555" lon="5.78476">
        <ele>1129.4</ele>
        <time>2020-06-27T04:50:23.988Z</time>
      </trkpt>
      <trkpt lat="45.26596" lon="5.78502">
        <ele>1141</ele>
        <time>2020-06-27T04:51:45.087Z</time>
      </trkpt>
      <trkpt lat="45.26696" lon="5.78618">
        <ele>1166</ele>
        <time>2020-06-27T04:55:38.268Z</time>
      </trkpt>
      <trkpt lat="45.26839" lon="5.78714">
        <ele>1197.1</ele>
        <time>2020-06-27T05:00:23.945Z</time>
      </trkpt>
      <trkpt lat="45.26926" lon="5.78764">
        <ele>1223.3</ele>
        <time>2020-06-27T05:03:13.459Z</time>
      </trkpt>
      <trkpt lat="45.26973" lon="5.78764">
        <ele>1228.4</ele>
        <time>2020-06-27T05:04:15.871Z</time>
      </trkpt>
      <trkpt lat="45.2703" lon="5.78826">
        <ele>1242</ele>
        <time>2020-06-27T05:06:25.532Z</time>
      </trkpt>
      <trkpt lat="45.27116" lon="5.78862">
        <ele>1265.3</ele>
        <time>2020-06-27T05:09:07.473Z</time>
      </trkpt>
      <trkpt lat="45.27167" lon="5.78894">
        <ele>1284.8</ele>
        <time>2020-06-27T05:10:48.174Z</time>
      </trkpt>
      <trkpt lat="45.27233" lon="5.78882">
        <ele>1293.8</ele>
        <time>2020-06-27T05:12:48.360Z</time>
      </trkpt>
      <trkpt lat="45.27312" lon="5.7886">
        <ele>1314.8</ele>
        <time>2020-06-27T05:15:13.771Z</time>
      </trkpt>
      <trkpt lat="45.27392" lon="5.78892">
        <ele>1333.2</ele>
        <time>2020-06-27T05:17:43.889Z</time>
      </trkpt>
      <trkpt lat="45.27461" lon="5.7893">
        <ele>1347.3</ele>
        <time>2020-06-27T05:19:57.554Z</time>
      </trkpt>
      <trkpt lat="45.27511" lon="5.7897">
        <ele>1364.7</ele>
        <time>2020-06-27T05:21:41.196Z</time>
      </trkpt>
      <trkpt lat="45.27535" lon="5.78984">
        <ele>1367.7</ele>
        <time>2020-06-27T05:22:18.469Z</time>
      </trkpt>
      <trkpt lat="45.27514" lon="5.79086">
        <ele>1366.4</ele>
        <time>2020-06-27T05:22:34.525Z</time>
      </trkpt>
      <trkpt lat="45.27535" lon="5.79134">
        <ele>1378</ele>
        <time>2020-06-27T05:23:46.367Z</time>
      </trkpt>
      <trkpt lat="45.2753" lon="5.792">
        <ele>1387.4</ele>
        <time>2020-06-27T05:25:10.743Z</time>
      </trkpt>
      <trkpt lat="45.27515" lon="5.79239">
        <ele>1385.5</ele>
        <time>2020-06-27T05:25:15.147Z</time>
      </trkpt>
      <trkpt lat="45.27522" lon="5.79307">
        <ele>1396</ele>
        <time>2020-06-27T05:26:42.501Z</time>
      </trkpt>
      <trkpt lat="45.27547" lon="5.79343">
        <ele>1403.7</ele>
        <time>2020-06-27T05:27:46.789Z</time>
      </trkpt>
      <trkpt lat="45.27601" lon="5.79393">
        <ele>1424</ele>
        <time>2020-06-27T05:29:43.206Z</time>
      </trkpt>
      <trkpt lat="45.27616" lon="5.79409">
        <ele>1426.1</ele>
        <time>2020-06-27T05:30:09.062Z</time>
      </trkpt>
      <trkpt lat="45.27649" lon="5.79309">
        <ele>1435.8</ele>
        <time>2020-06-27T05:32:13.880Z</time>
      </trkpt>
      <trkpt lat="45.2768" lon="5.79383">
        <ele>1453.3</ele>
        <time>2020-06-27T05:34:03.343Z</time>
      </trkpt>
      <trkpt lat="45.27723" lon="5.79253">
        <ele>1467.2</ele>
        <time>2020-06-27T05:37:05.923Z</time>
      </trkpt>
      <trkpt lat="45.27735" lon="5.79309">
        <ele>1469.8</ele>
        <time>2020-06-27T05:37:42.825Z</time>
      </trkpt>
      <trkpt lat="45.27753" lon="5.79281">
        <ele>1489.2</ele>
        <time>2020-06-27T05:38:31.029Z</time>
      </trkpt>
      <trkpt lat="45.27767" lon="5.79333">
        <ele>1489</ele>
        <time>2020-06-27T05:38:48.045Z</time>
      </trkpt>
      <trkpt lat="45.2777" lon="5.79269">
        <ele>1490.2</ele>
        <time>2020-06-27T05:39:15.986Z</time>
      </trkpt>
      <trkpt lat="45.27781" lon="5.79309">
        <ele>1493.6</ele>
        <time>2020-06-27T05:39:57.896Z</time>
      </trkpt>
      <trkpt lat="45.27793" lon="5.79273">
        <ele>1496</ele>
        <time>2020-06-27T05:40:27.836Z</time>
      </trkpt>
      <trkpt lat="45.27805" lon="5.79341">
        <ele>1491.5</ele>
        <time>2020-06-27T05:40:35.079Z</time>
      </trkpt>
      <trkpt lat="45.27945" lon="5.7904">
        <ele>1549.6</ele>
        <time>2020-06-27T05:48:13.673Z</time>
      </trkpt>
      <trkpt lat="45.27952" lon="5.79237">
        <ele>1559</ele>
        <time>2020-06-27T05:50:22.258Z</time>
      </trkpt>
      <trkpt lat="45.27991" lon="5.79263">
        <ele>1561</ele>
        <time>2020-06-27T05:50:56.725Z</time>
      </trkpt>
      <trkpt lat="45.28011" lon="5.79218">
        <ele>1580.9</ele>
        <time>2020-06-27T05:52:04.373Z</time>
      </trkpt>
      <trkpt lat="45.28036" lon="5.79178">
        <ele>1588</ele>
        <time>2020-06-27T05:53:12.371Z</time>
      </trkpt>
      <trkpt lat="45.2809" lon="5.79221">
        <ele>1598</ele>
        <time>2020-06-27T05:55:04.177Z</time>
      </trkpt>
      <trkpt lat="45.2817" lon="5.79255">
        <ele>1596.6</ele>
        <time>2020-06-27T05:55:22.238Z</time>
      </trkpt>
      <trkpt lat="45.28259" lon="5.79355">
        <ele>1584</ele>
        <time>2020-06-27T05:55:38.895Z</time>
      </trkpt>
      <trkpt lat="45.28314" lon="5.79401">
        <ele>1575.8</ele>
        <time>2020-06-27T05:55:48.264Z</time>
      </trkpt>
      <trkpt lat="45.2834" lon="5.79407">
        <ele>1574.2</ele>
        <time>2020-06-27T05:55:51.973Z</time>
      </trkpt>
      <trkpt lat="45.28359" lon="5.79379">
        <ele>1584</ele>
        <time>2020-06-27T05:56:41.411Z</time>
      </trkpt>
      <trkpt lat="45.28404" lon="5.79417">
        <ele>1557.7</ele>
        <time>2020-06-27T05:56:49.096Z</time>
      </trkpt>
      <trkpt lat="45.28412" lon="5.79527">
        <ele>1528.6</ele>
        <time>2020-06-27T05:57:00.519Z</time>
      </trkpt>
      <trkpt lat="45.28426" lon="5.79635">
        <ele>1498.5</ele>
        <time>2020-06-27T05:57:11.862Z</time>
      </trkpt>
      <trkpt lat="45.28443" lon="5.79671">
        <ele>1486.5</ele>
        <time>2020-06-27T05:57:16.341Z</time>
      </trkpt>
      <trkpt lat="45.28425" lon="5.79693">
        <ele>1486.4</ele>
        <time>2020-06-27T05:57:26.784Z</time>
      </trkpt>
      <trkpt lat="45.28448" lon="5.79713">
        <ele>1479.6</ele>
        <time>2020-06-27T05:57:30.743Z</time>
      </trkpt>
      <trkpt lat="45.28402" lon="5.79739">
        <ele>1480.1</ele>
        <time>2020-06-27T05:57:56.289Z</time>
      </trkpt>
      <trkpt lat="45.28439" lon="5.79801">
        <ele>1454.6</ele>
        <time>2020-06-27T05:58:04.687Z</time>
      </trkpt>
      <trkpt lat="45.28439" lon="5.79831">
        <ele>1451.2</ele>
        <time>2020-06-27T05:58:07.785Z</time>
      </trkpt>
      <trkpt lat="45.28425" lon="5.79843">
        <ele>1440.4</ele>
        <time>2020-06-27T05:58:10.186Z</time>
      </trkpt>
      <trkpt lat="45.28422" lon="5.79851">
        <ele>1437.2</ele>
        <time>2020-06-27T05:58:11.122Z</time>
      </trkpt>
      <trkpt lat="45.28441" lon="5.79917">
        <ele>1409.8</ele>
        <time>2020-06-27T05:58:18.488Z</time>
      </trkpt>
      <trkpt lat="45.2845" lon="5.79969">
        <ele>1401.4</ele>
        <time>2020-06-27T05:58:24.020Z</time>
      </trkpt>
      <trkpt lat="45.28467" lon="5.80047">
        <ele>1386.5</ele>
        <time>2020-06-27T05:58:32.454Z</time>
      </trkpt>
      <trkpt lat="45.28472" lon="5.80127">
        <ele>1377.3</ele>
        <time>2020-06-27T05:58:40.750Z</time>
      </trkpt>
      <trkpt lat="45.28459" lon="5.80228">
        <ele>1373.4</ele>
        <time>2020-06-27T05:58:51.500Z</time>
      </trkpt>
      <trkpt lat="45.28435" lon="5.80272">
        <ele>1375.3</ele>
        <time>2020-06-27T05:59:23.263Z</time>
      </trkpt>
      <trkpt lat="45.28412" lon="5.80312">
        <ele>1377.1</ele>
        <time>2020-06-27T05:59:52.933Z</time>
      </trkpt>
      <trkpt lat="45.28397" lon="5.80358">
        <ele>1378.1</ele>
        <time>2020-06-27T06:00:15.409Z</time>
      </trkpt>
      <trkpt lat="45.28362" lon="5.80422">
        <ele>1381.2</ele>
        <time>2020-06-27T06:01:03.481Z</time>
      </trkpt>
      <trkpt lat="45.28301" lon="5.80546">
        <ele>1396.6</ele>
        <time>2020-06-27T06:04:15.771Z</time>
      </trkpt>
      <trkpt lat="45.28259" lon="5.80622">
        <ele>1397.8</ele>
        <time>2020-06-27T06:04:53.753Z</time>
      </trkpt>
      <trkpt lat="45.28222" lon="5.80708">
        <ele>1404.8</ele>
        <time>2020-06-27T06:06:19.042Z</time>
      </trkpt>
      <trkpt lat="45.2819" lon="5.80804">
        <ele>1410.3</ele>
        <time>2020-06-27T06:07:31.431Z</time>
      </trkpt>
      <trkpt lat="45.28152" lon="5.80944">
        <ele>1423.3</ele>
        <time>2020-06-27T06:10:17.415Z</time>
      </trkpt>
      <trkpt lat="45.28135" lon="5.81032">
        <ele>1431.3</ele>
        <time>2020-06-27T06:12:00.252Z</time>
      </trkpt>
      <trkpt lat="45.28118" lon="5.81084">
        <ele>1438.3</ele>
        <time>2020-06-27T06:13:13.127Z</time>
      </trkpt>
      <trkpt lat="45.2807" lon="5.81181">
        <ele>1452.7</ele>
        <time>2020-06-27T06:15:43.844Z</time>
      </trkpt>
      <trkpt lat="45.28038" lon="5.81273">
        <ele>1469.5</ele>
        <time>2020-06-27T06:17:54.279Z</time>
      </trkpt>
      <trkpt lat="45.28012" lon="5.81391">
        <ele>1484.2</ele>
        <time>2020-06-27T06:20:31.434Z</time>
      </trkpt>
      <trkpt lat="45.28005" lon="5.81477">
        <ele>1481.9</ele>
        <time>2020-06-27T06:20:41.926Z</time>
      </trkpt>
      <trkpt lat="45.28021" lon="5.81557">
        <ele>1468.4</ele>
        <time>2020-06-27T06:20:50.518Z</time>
      </trkpt>
      <trkpt lat="45.28074" lon="5.81631">
        <ele>1456.1</ele>
        <time>2020-06-27T06:21:01.426Z</time>
      </trkpt>
      <trkpt lat="45.28093" lon="5.81685">
        <ele>1440.6</ele>
        <time>2020-06-27T06:21:07.662Z</time>
      </trkpt>
      <trkpt lat="45.28117" lon="5.81719">
        <ele>1429.4</ele>
        <time>2020-06-27T06:21:12.637Z</time>
      </trkpt>
      <trkpt lat="45.2817" lon="5.81717">
        <ele>1417.9</ele>
        <time>2020-06-27T06:21:20.421Z</time>
      </trkpt>
      <trkpt lat="45.28229" lon="5.81747">
        <ele>1414.5</ele>
        <time>2020-06-27T06:21:29.724Z</time>
      </trkpt>
      <trkpt lat="45.28339" lon="5.81839">
        <ele>1420.4</ele>
        <time>2020-06-27T06:23:11.713Z</time>
      </trkpt>
      <trkpt lat="45.28397" lon="5.81889">
        <ele>1417.8</ele>
        <time>2020-06-27T06:23:23.332Z</time>
      </trkpt>
      <trkpt lat="45.28459" lon="5.81909">
        <ele>1414.9</ele>
        <time>2020-06-27T06:23:33.506Z</time>
      </trkpt>
      <trkpt lat="45.28495" lon="5.81945">
        <ele>1409.8</ele>
        <time>2020-06-27T06:23:39.969Z</time>
      </trkpt>
      <trkpt lat="45.28553" lon="5.82013">
        <ele>1398.3</ele>
        <time>2020-06-27T06:23:51.007Z</time>
      </trkpt>
      <trkpt lat="45.28703" lon="5.82067">
        <ele>1415.1</ele>
        <time>2020-06-27T06:27:16.619Z</time>
      </trkpt>
      <trkpt lat="45.28791" lon="5.82055">
        <ele>1422.8</ele>
        <time>2020-06-27T06:28:52.255Z</time>
      </trkpt>
      <trkpt lat="45.28864" lon="5.82037">
        <ele>1420.8</ele>
        <time>2020-06-27T06:29:06.505Z</time>
      </trkpt>
      <trkpt lat="45.28918" lon="5.82105">
        <ele>1438.1</ele>
        <time>2020-06-27T06:31:16.816Z</time>
      </trkpt>
      <trkpt lat="45.2897" lon="5.82142">
        <ele>1447.8</ele>
        <time>2020-06-27T06:33:01.854Z</time>
      </trkpt>
      <trkpt lat="45.29045" lon="5.82138">
        <ele>1448</ele>
        <time>2020-06-27T06:33:37.880Z</time>
      </trkpt>
      <trkpt lat="45.29088" lon="5.8212">
        <ele>1448.3</ele>
        <time>2020-06-27T06:34:00.242Z</time>
      </trkpt>
      <trkpt lat="45.29165" lon="5.82087">
        <ele>1441.7</ele>
        <time>2020-06-27T06:34:12.049Z</time>
      </trkpt>
      <trkpt lat="45.29249" lon="5.82055">
        <ele>1422.7</ele>
        <time>2020-06-27T06:34:24.817Z</time>
      </trkpt>
      <trkpt lat="45.29332" lon="5.82065">
        <ele>1423</ele>
        <time>2020-06-27T06:35:05.155Z</time>
      </trkpt>
      <trkpt lat="45.29362" lon="5.82113">
        <ele>1444.3</ele>
        <time>2020-06-27T06:36:26.742Z</time>
      </trkpt>
      <trkpt lat="45.29462" lon="5.8216">
        <ele>1448</ele>
        <time>2020-06-27T06:37:39.466Z</time>
      </trkpt>
      <trkpt lat="45.2956" lon="5.82202">
        <ele>1471.8</ele>
        <time>2020-06-27T06:40:44.351Z</time>
      </trkpt>
      <trkpt lat="45.29645" lon="5.8224">
        <ele>1477.5</ele>
        <time>2020-06-27T06:42:04.664Z</time>
      </trkpt>
      <trkpt lat="45.29735" lon="5.82282">
        <ele>1500.9</ele>
        <time>2020-06-27T06:44:55.764Z</time>
      </trkpt>
      <trkpt lat="45.29791" lon="5.82304">
        <ele>1503.3</ele>
        <time>2020-06-27T06:45:39.532Z</time>
      </trkpt>
      <trkpt lat="45.2985" lon="5.82328">
        <ele>1510.2</ele>
        <time>2020-06-27T06:47:04.572Z</time>
      </trkpt>
      <trkpt lat="45.29905" lon="5.82314">
        <ele>1505.6</ele>
        <time>2020-06-27T06:47:12.775Z</time>
      </trkpt>
      <trkpt lat="45.29967" lon="5.8235">
        <ele>1519.9</ele>
        <time>2020-06-27T06:49:13.745Z</time>
      </trkpt>
      <trkpt lat="45.3006" lon="5.82424">
        <ele>1497.8</ele>
        <time>2020-06-27T06:49:29.391Z</time>
      </trkpt>
      <trkpt lat="45.30032" lon="5.82506">
        <ele>1512.1</ele>
        <time>2020-06-27T06:51:25.201Z</time>
      </trkpt>
      <trkpt lat="45.30024" lon="5.8258">
        <ele>1507.3</ele>
        <time>2020-06-27T06:51:32.932Z</time>
      </trkpt>
      <trkpt lat="45.30063" lon="5.82698">
        <ele>1484.5</ele>
        <time>2020-06-27T06:51:46.396Z</time>
      </trkpt>
      <trkpt lat="45.30111" lon="5.82778">
        <ele>1459</ele>
        <time>2020-06-27T06:51:57.254Z</time>
      </trkpt>
      <trkpt lat="45.30145" lon="5.8283">
        <ele>1448.8</ele>
        <time>2020-06-27T06:52:04.586Z</time>
      </trkpt>
      <trkpt lat="45.30195" lon="5.82886">
        <ele>1422.1</ele>
        <time>2020-06-27T06:52:13.931Z</time>
      </trkpt>
      <trkpt lat="45.30207" lon="5.82978">
        <ele>1419.3</ele>
        <time>2020-06-27T06:52:24.763Z</time>
      </trkpt>
      <trkpt lat="45.3019" lon="5.83054">
        <ele>1410.8</ele>
        <time>2020-06-27T06:52:32.998Z</time>
      </trkpt>
      <trkpt lat="45.3017" lon="5.83123">
        <ele>1402.5</ele>
        <time>2020-06-27T06:52:40.704Z</time>
      </trkpt>
      <trkpt lat="45.30187" lon="5.83235">
        <ele>1399.7</ele>
        <time>2020-06-27T06:52:55.003Z</time>
      </trkpt>
      <trkpt lat="45.30188" lon="5.83321">
        <ele>1399.3</ele>
        <time>2020-06-27T06:53:20.728Z</time>
      </trkpt>
      <trkpt lat="45.30167" lon="5.83399">
        <ele>1402.2</ele>
        <time>2020-06-27T06:54:08.632Z</time>
      </trkpt>
      <trkpt lat="45.30173" lon="5.83479">
        <ele>1418.1</ele>
        <time>2020-06-27T06:55:50.847Z</time>
      </trkpt>
      <trkpt lat="45.30224" lon="5.83571">
        <ele>1434.7</ele>
        <time>2020-06-27T06:58:19.669Z</time>
      </trkpt>
      <trkpt lat="45.30262" lon="5.83591">
        <ele>1442.5</ele>
        <time>2020-06-27T06:59:32.860Z</time>
      </trkpt>
      <trkpt lat="45.30286" lon="5.83589">
        <ele>1449.1</ele>
        <time>2020-06-27T07:00:16.285Z</time>
      </trkpt>
      <trkpt lat="45.3025" lon="5.83677">
        <ele>1446.8</ele>
        <time>2020-06-27T07:00:29.332Z</time>
      </trkpt>
      <trkpt lat="45.30308" lon="5.83707">
        <ele>1448.4</ele>
        <time>2020-06-27T07:01:07.235Z</time>
      </trkpt>
      <trkpt lat="45.30398" lon="5.83733">
        <ele>1465.5</ele>
        <time>2020-06-27T07:03:53.121Z</time>
      </trkpt>
      <trkpt lat="45.30484" lon="5.83731">
        <ele>1483.2</ele>
        <time>2020-06-27T07:06:28.482Z</time>
      </trkpt>
      <trkpt lat="45.30523" lon="5.83735">
        <ele>1500.3</ele>
        <time>2020-06-27T07:07:39.110Z</time>
      </trkpt>
      <trkpt lat="45.3059" lon="5.83805">
        <ele>1502.4</ele>
        <time>2020-06-27T07:08:29.765Z</time>
      </trkpt>
      <trkpt lat="45.3074" lon="5.83953">
        <ele>1484.8</ele>
        <time>2020-06-27T07:08:56.569Z</time>
      </trkpt>
      <trkpt lat="45.30808" lon="5.84043">
        <ele>1487.6</ele>
        <time>2020-06-27T07:09:56.665Z</time>
      </trkpt>
      <trkpt lat="45.30868" lon="5.84136">
        <ele>1505.1</ele>
        <time>2020-06-27T07:12:36.986Z</time>
      </trkpt>
      <trkpt lat="45.30925" lon="5.8421">
        <ele>1530.8</ele>
        <time>2020-06-27T07:14:56.403Z</time>
      </trkpt>
      <trkpt lat="45.31019" lon="5.84228">
        <ele>1537.5</ele>
        <time>2020-06-27T07:16:26.214Z</time>
      </trkpt>
      <trkpt lat="45.30988" lon="5.84326">
        <ele>1551</ele>
        <time>2020-06-27T07:18:42.717Z</time>
      </trkpt>
      <trkpt lat="45.31009" lon="5.8434">
        <ele>1556.9</ele>
        <time>2020-06-27T07:19:24.611Z</time>
      </trkpt>
      <trkpt lat="45.30997" lon="5.84374">
        <ele>1565.2</ele>
        <time>2020-06-27T07:20:12.935Z</time>
      </trkpt>
      <trkpt lat="45.31036" lon="5.84398">
        <ele>1562.3</ele>
        <time>2020-06-27T07:20:19.174Z</time>
      </trkpt>
      <trkpt lat="45.31014" lon="5.84416">
        <ele>1571.5</ele>
        <time>2020-06-27T07:21:05.021Z</time>
      </trkpt>
      <trkpt lat="45.31037" lon="5.8444">
        <ele>1586.7</ele>
        <time>2020-06-27T07:21:56.551Z</time>
      </trkpt>
      <trkpt lat="45.31018" lon="5.8446">
        <ele>1591.8</ele>
        <time>2020-06-27T07:22:39.251Z</time>
      </trkpt>
      <trkpt lat="45.31057" lon="5.84492">
        <ele>1595.1</ele>
        <time>2020-06-27T07:23:22.760Z</time>
      </trkpt>
      <trkpt lat="45.31043" lon="5.845">
        <ele>1596</ele>
        <time>2020-06-27T07:23:35.949Z</time>
      </trkpt>
      <trkpt lat="45.31049" lon="5.8452">
        <ele>1618.4</ele>
        <time>2020-06-27T07:24:03.570Z</time>
      </trkpt>
      <trkpt lat="45.31037" lon="5.84526">
        <ele>1620.2</ele>
        <time>2020-06-27T07:24:26.546Z</time>
      </trkpt>
      <trkpt lat="45.3106" lon="5.84556">
        <ele>1625.8</ele>
        <time>2020-06-27T07:25:22.922Z</time>
      </trkpt>
      <trkpt lat="45.31043" lon="5.84566">
        <ele>1627.4</ele>
        <time>2020-06-27T07:25:42.801Z</time>
      </trkpt>
      <trkpt lat="45.31119" lon="5.84612">
        <ele>1648.6</ele>
        <time>2020-06-27T07:28:11.997Z</time>
      </trkpt>
      <trkpt lat="45.31154" lon="5.8465">
        <ele>1657.4</ele>
        <time>2020-06-27T07:29:31.538Z</time>
      </trkpt>
      <trkpt lat="45.31181" lon="5.84664">
        <ele>1652.5</ele>
        <time>2020-06-27T07:29:35.757Z</time>
      </trkpt>
      <trkpt lat="45.31246" lon="5.84682">
        <ele>1666.6</ele>
        <time>2020-06-27T07:31:35.371Z</time>
      </trkpt>
      <trkpt lat="45.31306" lon="5.84748">
        <ele>1658.6</ele>
        <time>2020-06-27T07:31:46.508Z</time>
      </trkpt>
      <trkpt lat="45.31344" lon="5.84826">
        <ele>1678.6</ele>
        <time>2020-06-27T07:33:47.039Z</time>
      </trkpt>
      <trkpt lat="45.31398" lon="5.84882">
        <ele>1683.2</ele>
        <time>2020-06-27T07:34:49.466Z</time>
      </trkpt>
      <trkpt lat="45.31433" lon="5.8492">
        <ele>1677.7</ele>
        <time>2020-06-27T07:34:55.931Z</time>
      </trkpt>
      <trkpt lat="45.31494" lon="5.8499">
        <ele>1666.9</ele>
        <time>2020-06-27T07:35:07.439Z</time>
      </trkpt>
      <trkpt lat="45.3155" lon="5.85019">
        <ele>1738.4</ele>
        <time>2020-06-27T07:36:55.088Z</time>
      </trkpt>
      <trkpt lat="45.31578" lon="5.85033">
        <ele>1745.2</ele>
        <time>2020-06-27T07:37:48.699Z</time>
      </trkpt>
      <trkpt lat="45.31603" lon="5.85091">
        <ele>1834.3</ele>
        <time>2020-06-27T07:39:15.108Z</time>
      </trkpt>
      <trkpt lat="45.31658" lon="5.85123">
        <ele>1822.6</ele>
        <time>2020-06-27T07:39:23.832Z</time>
      </trkpt>
      <trkpt lat="45.31739" lon="5.85153">
        <ele>1793.7</ele>
        <time>2020-06-27T07:39:36.120Z</time>
      </trkpt>
      <trkpt lat="45.31775" lon="5.85159">
        <ele>1738.5</ele>
        <time>2020-06-27T07:39:41.442Z</time>
      </trkpt>
      <trkpt lat="45.31822" lon="5.85192">
        <ele>1773.4</ele>
        <time>2020-06-27T07:41:16.120Z</time>
      </trkpt>
      <trkpt lat="45.31863" lon="5.85207">
        <ele>1725.8</ele>
        <time>2020-06-27T07:41:22.335Z</time>
      </trkpt>
      <trkpt lat="45.31877" lon="5.85252">
        <ele>1757.8</ele>
        <time>2020-06-27T07:42:24.834Z</time>
      </trkpt>
      <trkpt lat="45.31855" lon="5.85232">
        <ele>1736.3</ele>
        <time>2020-06-27T07:42:28.668Z</time>
      </trkpt>
      <trkpt lat="45.31883" lon="5.85295">
        <ele>1763.9</ele>
        <time>2020-06-27T07:44:03.328Z</time>
      </trkpt>
      <trkpt lat="45.3192" lon="5.85346">
        <ele>1774.6</ele>
        <time>2020-06-27T07:45:36.400Z</time>
      </trkpt>
      <trkpt lat="45.31904" lon="5.85393">
        <ele>1786.6</ele>
        <time>2020-06-27T07:46:42.723Z</time>
      </trkpt>
      <trkpt lat="45.31893" lon="5.8546">
        <ele>1793.5</ele>
        <time>2020-06-27T07:48:10.108Z</time>
      </trkpt>
      <trkpt lat="45.31953" lon="5.85535">
        <ele>1784.2</ele>
        <time>2020-06-27T07:48:21.836Z</time>
      </trkpt>
      <trkpt lat="45.32011" lon="5.85586">
        <ele>1773.5</ele>
        <time>2020-06-27T07:48:31.847Z</time>
      </trkpt>
      <trkpt lat="45.32035" lon="5.8564">
        <ele>1767.8</ele>
        <time>2020-06-27T07:48:38.442Z</time>
      </trkpt>
      <trkpt lat="45.32035" lon="5.85724">
        <ele>1758.9</ele>
        <time>2020-06-27T07:48:47.113Z</time>
      </trkpt>
      <trkpt lat="45.32049" lon="5.85743">
        <ele>1756.8</ele>
        <time>2020-06-27T07:48:49.954Z</time>
      </trkpt>
      <trkpt lat="45.32073" lon="5.8576">
        <ele>1752.2</ele>
        <time>2020-06-27T07:48:53.890Z</time>
      </trkpt>
      <trkpt lat="45.32109" lon="5.85814">
        <ele>1741.7</ele>
        <time>2020-06-27T07:49:01.572Z</time>
      </trkpt>
      <trkpt lat="45.32165" lon="5.85889">
        <ele>1738.1</ele>
        <time>2020-06-27T07:49:13.751Z</time>
      </trkpt>
      <trkpt lat="45.32172" lon="5.85932">
        <ele>1731.7</ele>
        <time>2020-06-27T07:49:18.308Z</time>
      </trkpt>
      <trkpt lat="45.3219" lon="5.85966">
        <ele>1730.6</ele>
        <time>2020-06-27T07:49:23.512Z</time>
      </trkpt>
      <trkpt lat="45.32207" lon="5.86026">
        <ele>1736.9</ele>
        <time>2020-06-27T07:50:45.668Z</time>
      </trkpt>
      <trkpt lat="45.32224" lon="5.86086">
        <ele>1740.9</ele>
        <time>2020-06-27T07:51:35.235Z</time>
      </trkpt>
      <trkpt lat="45.32234" lon="5.86146">
        <ele>1743.4</ele>
        <time>2020-06-27T07:52:12.613Z</time>
      </trkpt>
      <trkpt lat="45.32237" lon="5.86181">
        <ele>1746.7</ele>
        <time>2020-06-27T07:52:57.185Z</time>
      </trkpt>
      <trkpt lat="45.32222" lon="5.86217">
        <ele>1751.7</ele>
        <time>2020-06-27T07:53:50.331Z</time>
      </trkpt>
      <trkpt lat="45.3224" lon="5.86252">
        <ele>1748.8</ele>
        <time>2020-06-27T07:53:54.808Z</time>
      </trkpt>
      <trkpt lat="45.32245" lon="5.8629">
        <ele>1754.7</ele>
        <time>2020-06-27T07:54:43.906Z</time>
      </trkpt>
      <trkpt lat="45.32243" lon="5.86355">
        <ele>1759.3</ele>
        <time>2020-06-27T07:55:39.919Z</time>
      </trkpt>
      <trkpt lat="45.32288" lon="5.8643">
        <ele>1757</ele>
        <time>2020-06-27T07:55:52.414Z</time>
      </trkpt>
      <trkpt lat="45.32341" lon="5.8647">
        <ele>1753.3</ele>
        <time>2020-06-27T07:56:00.802Z</time>
      </trkpt>
      <trkpt lat="45.32365" lon="5.86462">
        <ele>1749.8</ele>
        <time>2020-06-27T07:56:04.421Z</time>
      </trkpt>
      <trkpt lat="45.32424" lon="5.8646">
        <ele>1750.1</ele>
        <time>2020-06-27T07:56:33.407Z</time>
      </trkpt>
      <trkpt lat="45.32463" lon="5.86432">
        <ele>1742.9</ele>
        <time>2020-06-27T07:56:39.821Z</time>
      </trkpt>
      <trkpt lat="45.32509" lon="5.86451">
        <ele>1752.3</ele>
        <time>2020-06-27T07:58:06.343Z</time>
      </trkpt>
      <trkpt lat="45.32536" lon="5.86432">
        <ele>1748.9</ele>
        <time>2020-06-27T07:58:10.765Z</time>
      </trkpt>
      <trkpt lat="45.32589" lon="5.86419">
        <ele>1740.2</ele>
        <time>2020-06-27T07:58:18.661Z</time>
      </trkpt>
      <trkpt lat="45.32657" lon="5.86455">
        <ele>1742.1</ele>
        <time>2020-06-27T07:59:03.361Z</time>
      </trkpt>
      <trkpt lat="45.32724" lon="5.86498">
        <ele>1706.4</ele>
        <time>2020-06-27T07:59:14.153Z</time>
      </trkpt>
      <trkpt lat="45.32782" lon="5.86518">
        <ele>1717.3</ele>
        <time>2020-06-27T08:01:01.951Z</time>
      </trkpt>
      <trkpt lat="45.32832" lon="5.86541">
        <ele>1719.2</ele>
        <time>2020-06-27T08:01:38.746Z</time>
      </trkpt>
      <trkpt lat="45.32905" lon="5.86543">
        <ele>1683.6</ele>
        <time>2020-06-27T08:01:49.465Z</time>
      </trkpt>
      <trkpt lat="45.32961" lon="5.86548">
        <ele>1666.1</ele>
        <time>2020-06-27T08:01:57.703Z</time>
      </trkpt>
      <trkpt lat="45.32976" lon="5.86561">
        <ele>1665.2</ele>
        <time>2020-06-27T08:02:00.378Z</time>
      </trkpt>
      <trkpt lat="45.33002" lon="5.86616">
        <ele>1677</ele>
        <time>2020-06-27T08:03:24.541Z</time>
      </trkpt>
      <trkpt lat="45.33" lon="5.86681">
        <ele>1745.9</ele>
        <time>2020-06-27T08:04:47.161Z</time>
      </trkpt>
      <trkpt lat="45.33056" lon="5.86715">
        <ele>1716.5</ele>
        <time>2020-06-27T08:04:56.100Z</time>
      </trkpt>
      <trkpt lat="45.33121" lon="5.86805">
        <ele>1707.6</ele>
        <time>2020-06-27T08:05:09.417Z</time>
      </trkpt>
      <trkpt lat="45.33151" lon="5.86846">
        <ele>1719.9</ele>
        <time>2020-06-27T08:06:24.563Z</time>
      </trkpt>
      <trkpt lat="45.33151" lon="5.86889">
        <ele>1720.7</ele>
        <time>2020-06-27T08:06:43.249Z</time>
      </trkpt>
      <trkpt lat="45.33175" lon="5.86938">
        <ele>1718.1</ele>
        <time>2020-06-27T08:06:49.106Z</time>
      </trkpt>
      <trkpt lat="45.33261" lon="5.87061">
        <ele>1714.1</ele>
        <time>2020-06-27T08:07:11.172Z</time>
      </trkpt>
      <trkpt lat="45.3328" lon="5.87125">
        <ele>1729.8</ele>
        <time>2020-06-27T08:08:39.388Z</time>
      </trkpt>
      <trkpt lat="45.33301" lon="5.87189">
        <ele>1751.3</ele>
        <time>2020-06-27T08:10:09.072Z</time>
      </trkpt>
      <trkpt lat="45.33349" lon="5.87219">
        <ele>1741.9</ele>
        <time>2020-06-27T08:10:16.769Z</time>
      </trkpt>
      <trkpt lat="45.33387" lon="5.87224">
        <ele>1738.3</ele>
        <time>2020-06-27T08:10:22.371Z</time>
      </trkpt>
      <trkpt lat="45.33447" lon="5.87194">
        <ele>1717.7</ele>
        <time>2020-06-27T08:10:31.708Z</time>
      </trkpt>
      <trkpt lat="45.33479" lon="5.87204">
        <ele>1716.2</ele>
        <time>2020-06-27T08:10:36.943Z</time>
      </trkpt>
      <trkpt lat="45.33572" lon="5.87245">
        <ele>1709.5</ele>
        <time>2020-06-27T08:10:51.238Z</time>
      </trkpt>
      <trkpt lat="45.3363" lon="5.87245">
        <ele>1691</ele>
        <time>2020-06-27T08:10:59.753Z</time>
      </trkpt>
      <trkpt lat="45.33715" lon="5.87273">
        <ele>1698.5</ele>
        <time>2020-06-27T08:12:33.218Z</time>
      </trkpt>
      <trkpt lat="45.33759" lon="5.87297">
        <ele>1685.7</ele>
        <time>2020-06-27T08:12:40.136Z</time>
      </trkpt>
      <trkpt lat="45.33844" lon="5.87314">
        <ele>1666.6</ele>
        <time>2020-06-27T08:12:52.738Z</time>
      </trkpt>
      <trkpt lat="45.33893" lon="5.87339">
        <ele>1682.9</ele>
        <time>2020-06-27T08:14:26.765Z</time>
      </trkpt>
      <trkpt lat="45.33921" lon="5.87342">
        <ele>1668.4</ele>
        <time>2020-06-27T08:14:30.888Z</time>
      </trkpt>
      <trkpt lat="45.3401" lon="5.87374">
        <ele>1696.1</ele>
        <time>2020-06-27T08:17:16.701Z</time>
      </trkpt>
      <trkpt lat="45.34093" lon="5.87374">
        <ele>1721.5</ele>
        <time>2020-06-27T08:19:46.622Z</time>
      </trkpt>
      <trkpt lat="45.34067" lon="5.87436">
        <ele>1730</ele>
        <time>2020-06-27T08:21:18.283Z</time>
      </trkpt>
      <trkpt lat="45.34029" lon="5.87496">
        <ele>1731.2</ele>
        <time>2020-06-27T08:21:51.250Z</time>
      </trkpt>
      <trkpt lat="45.3408" lon="5.875">
        <ele>1748.2</ele>
        <time>2020-06-27T08:23:23.510Z</time>
      </trkpt>
      <trkpt lat="45.34159" lon="5.87466">
        <ele>1756.7</ele>
        <time>2020-06-27T08:25:07.034Z</time>
      </trkpt>
      <trkpt lat="45.34183" lon="5.8744">
        <ele>1766.8</ele>
        <time>2020-06-27T08:26:01.522Z</time>
      </trkpt>
      <trkpt lat="45.34222" lon="5.87402">
        <ele>1761.7</ele>
        <time>2020-06-27T08:26:08.461Z</time>
      </trkpt>
      <trkpt lat="45.34194" lon="5.87513">
        <ele>1808.8</ele>
        <time>2020-06-27T08:28:38.186Z</time>
      </trkpt>
      <trkpt lat="45.34234" lon="5.8749">
        <ele>1797</ele>
        <time>2020-06-27T08:28:44.520Z</time>
      </trkpt>
      <trkpt lat="45.3421" lon="5.87545">
        <ele>1821.9</ele>
        <time>2020-06-27T08:30:06.709Z</time>
      </trkpt>
      <trkpt lat="45.34275" lon="5.87511">
        <ele>1829.5</ele>
        <time>2020-06-27T08:31:39.891Z</time>
      </trkpt>
      <trkpt lat="45.34257" lon="5.8756">
        <ele>1853.5</ele>
        <time>2020-06-27T08:32:50.084Z</time>
      </trkpt>
      <trkpt lat="45.34287" lon="5.87552">
        <ele>1846.9</ele>
        <time>2020-06-27T08:32:54.565Z</time>
      </trkpt>
      <trkpt lat="45.34261" lon="5.87633">
        <ele>1887.4</ele>
        <time>2020-06-27T08:34:47.616Z</time>
      </trkpt>
      <trkpt lat="45.34268" lon="5.87648">
        <ele>1889</ele>
        <time>2020-06-27T08:35:08.374Z</time>
      </trkpt>
      <trkpt lat="45.34261" lon="5.87668">
        <ele>1886.6</ele>
        <time>2020-06-27T08:35:10.680Z</time>
      </trkpt>
      <trkpt lat="45.34307" lon="5.87657">
        <ele>1889.1</ele>
        <time>2020-06-27T08:35:49.796Z</time>
      </trkpt>
      <trkpt lat="45.34355" lon="5.87595">
        <ele>1825.7</ele>
        <time>2020-06-27T08:35:59.314Z</time>
      </trkpt>
      <trkpt lat="45.34426" lon="5.87575">
        <ele>1659.8</ele>
        <time>2020-06-27T08:36:09.940Z</time>
      </trkpt>
      <trkpt lat="45.34479" lon="5.87603">
        <ele>1661.2</ele>
        <time>2020-06-27T08:36:44.182Z</time>
      </trkpt>
      <trkpt lat="45.34545" lon="5.87668">
        <ele>1633.3</ele>
        <time>2020-06-27T08:36:55.967Z</time>
      </trkpt>
      <trkpt lat="45.345" lon="5.87706">
        <ele>1666.1</ele>
        <time>2020-06-27T08:38:30.487Z</time>
      </trkpt>
      <trkpt lat="45.34489" lon="5.87751">
        <ele>1666.3</ele>
        <time>2020-06-27T08:38:47.076Z</time>
      </trkpt>
      <trkpt lat="45.34501" lon="5.87771">
        <ele>1668.9</ele>
        <time>2020-06-27T08:39:20.460Z</time>
      </trkpt>
      <trkpt lat="45.34507" lon="5.87784">
        <ele>1684.9</ele>
        <time>2020-06-27T08:39:40.204Z</time>
      </trkpt>
      <trkpt lat="45.34512" lon="5.87824">
        <ele>1738.3</ele>
        <time>2020-06-27T08:40:31.781Z</time>
      </trkpt>
      <trkpt lat="45.34566" lon="5.8791">
        <ele>1773.4</ele>
        <time>2020-06-27T08:42:58.184Z</time>
      </trkpt>
      <trkpt lat="45.34631" lon="5.87962">
        <ele>1771.4</ele>
        <time>2020-06-27T08:43:12.553Z</time>
      </trkpt>
      <trkpt lat="45.3469" lon="5.88">
        <ele>1771.3</ele>
        <time>2020-06-27T08:43:42.180Z</time>
      </trkpt>
      <trkpt lat="45.34738" lon="5.88041">
        <ele>1823.3</ele>
        <time>2020-06-27T08:45:23.304Z</time>
      </trkpt>
      <trkpt lat="45.34816" lon="5.88043">
        <ele>1709.3</ele>
        <time>2020-06-27T08:45:34.757Z</time>
      </trkpt>
      <trkpt lat="45.34871" lon="5.88054">
        <ele>1613</ele>
        <time>2020-06-27T08:45:42.911Z</time>
      </trkpt>
      <trkpt lat="45.34896" lon="5.88082">
        <ele>1596.4</ele>
        <time>2020-06-27T08:45:47.582Z</time>
      </trkpt>
      <trkpt lat="45.34964" lon="5.88086">
        <ele>1598.5</ele>
        <time>2020-06-27T08:46:32.010Z</time>
      </trkpt>
      <trkpt lat="45.35008" lon="5.88103">
        <ele>1588.9</ele>
        <time>2020-06-27T08:46:38.704Z</time>
      </trkpt>
      <trkpt lat="45.35058" lon="5.88159">
        <ele>1605.9</ele>
        <time>2020-06-27T08:48:33.638Z</time>
      </trkpt>
      <trkpt lat="45.35076" lon="5.88151">
        <ele>1604.6</ele>
        <time>2020-06-27T08:48:36.407Z</time>
      </trkpt>
      <trkpt lat="45.35108" lon="5.88123">
        <ele>1582.2</ele>
        <time>2020-06-27T08:48:41.922Z</time>
      </trkpt>
      <trkpt lat="45.35169" lon="5.88155">
        <ele>1571.6</ele>
        <time>2020-06-27T08:48:51.467Z</time>
      </trkpt>
      <trkpt lat="45.35275" lon="5.88166">
        <ele>1579.7</ele>
        <time>2020-06-27T08:50:36.540Z</time>
      </trkpt>
      <trkpt lat="45.35344" lon="5.88183">
        <ele>1592.2</ele>
        <time>2020-06-27T08:52:43.028Z</time>
      </trkpt>
      <trkpt lat="45.35379" lon="5.88219">
        <ele>1596.8</ele>
        <time>2020-06-27T08:53:39.185Z</time>
      </trkpt>
      <trkpt lat="45.35415" lon="5.88275">
        <ele>1650.2</ele>
        <time>2020-06-27T08:55:15.523Z</time>
      </trkpt>
      <trkpt lat="45.35504" lon="5.88329">
        <ele>1657.7</ele>
        <time>2020-06-27T08:56:52.173Z</time>
      </trkpt>
      <trkpt lat="45.35555" lon="5.8838">
        <ele>1670.7</ele>
        <time>2020-06-27T08:58:44.764Z</time>
      </trkpt>
      <trkpt lat="45.35584" lon="5.88402">
        <ele>1647.4</ele>
        <time>2020-06-27T08:58:49.588Z</time>
      </trkpt>
      <trkpt lat="45.35637" lon="5.88425">
        <ele>1648.3</ele>
        <time>2020-06-27T08:59:20.072Z</time>
      </trkpt>
      <trkpt lat="45.35702" lon="5.88464">
        <ele>1630.1</ele>
        <time>2020-06-27T08:59:30.428Z</time>
      </trkpt>
      <trkpt lat="45.35775" lon="5.8846">
        <ele>1566.1</ele>
        <time>2020-06-27T08:59:41.153Z</time>
      </trkpt>
      <trkpt lat="45.35849" lon="5.88408">
        <ele>1529.2</ele>
        <time>2020-06-27T08:59:53.269Z</time>
      </trkpt>
      <trkpt lat="45.35913" lon="5.88397">
        <ele>1528.6</ele>
        <time>2020-06-27T09:00:08.608Z</time>
      </trkpt>
      <trkpt lat="45.35994" lon="5.88406">
        <ele>1526</ele>
        <time>2020-06-27T09:00:23.430Z</time>
      </trkpt>
      <trkpt lat="45.36039" lon="5.8841">
        <ele>1527</ele>
        <time>2020-06-27T09:00:49.927Z</time>
      </trkpt>
      <trkpt lat="45.36112" lon="5.88449">
        <ele>1527.4</ele>
        <time>2020-06-27T09:01:28.242Z</time>
      </trkpt>
      <trkpt lat="45.36187" lon="5.88502">
        <ele>1526</ele>
        <time>2020-06-27T09:01:46.366Z</time>
      </trkpt>
      <trkpt lat="45.36247" lon="5.88502">
        <ele>1526</ele>
        <time>2020-06-27T09:02:14.463Z</time>
      </trkpt>
      <trkpt lat="45.36284" lon="5.88507">
        <ele>1526</ele>
        <time>2020-06-27T09:02:31.868Z</time>
      </trkpt>
      <trkpt lat="45.36348" lon="5.88496">
        <ele>1526</ele>
        <time>2020-06-27T09:03:02.057Z</time>
      </trkpt>
      <trkpt lat="45.36428" lon="5.88517">
        <ele>1526</ele>
        <time>2020-06-27T09:03:40.152Z</time>
      </trkpt>
      <trkpt lat="45.36525" lon="5.88567">
        <ele>1526</ele>
        <time>2020-06-27T09:04:28.464Z</time>
      </trkpt>
      <trkpt lat="45.36615" lon="5.88599">
        <ele>1526</ele>
        <time>2020-06-27T09:05:11.905Z</time>
      </trkpt>
      <trkpt lat="45.36671" lon="5.88631">
        <ele>1528.1</ele>
        <time>2020-06-27T09:05:53.387Z</time>
      </trkpt>
      <trkpt lat="45.3679" lon="5.887">
        <ele>1664.3</ele>
        <time>2020-06-27T09:09:45.485Z</time>
      </trkpt>
      <trkpt lat="45.36876" lon="5.88775">
        <ele>1834.3</ele>
        <time>2020-06-27T09:12:47.662Z</time>
      </trkpt>
      <trkpt lat="45.3693" lon="5.88854">
        <ele>1829.1</ele>
        <time>2020-06-27T09:12:59.031Z</time>
      </trkpt>
      <trkpt lat="45.36991" lon="5.88889">
        <ele>1829</ele>
        <time>2020-06-27T09:13:29.129Z</time>
      </trkpt>
      <trkpt lat="45.37072" lon="5.88906">
        <ele>1831.6</ele>
        <time>2020-06-27T09:14:23.198Z</time>
      </trkpt>
      <trkpt lat="45.37123" lon="5.88957">
        <ele>1798.9</ele>
        <time>2020-06-27T09:14:32.349Z</time>
      </trkpt>
      <trkpt lat="45.37178" lon="5.88996">
        <ele>1776.9</ele>
        <time>2020-06-27T09:14:41.370Z</time>
      </trkpt>
      <trkpt lat="45.37235" lon="5.89065">
        <ele>1724.1</ele>
        <time>2020-06-27T09:14:52.355Z</time>
      </trkpt>
      <trkpt lat="45.37286" lon="5.89095">
        <ele>1705</ele>
        <time>2020-06-27T09:15:00.456Z</time>
      </trkpt>
      <trkpt lat="45.37307" lon="5.89142">
        <ele>1705</ele>
        <time>2020-06-27T09:15:18.780Z</time>
      </trkpt>
      <trkpt lat="45.37364" lon="5.89176">
        <ele>1700.8</ele>
        <time>2020-06-27T09:15:27.854Z</time>
      </trkpt>
      <trkpt lat="45.3741" lon="5.89172">
        <ele>1702.6</ele>
        <time>2020-06-27T09:16:01.457Z</time>
      </trkpt>
      <trkpt lat="45.37458" lon="5.89198">
        <ele>1680</ele>
        <time>2020-06-27T09:16:08.997Z</time>
      </trkpt>
      <trkpt lat="45.37533" lon="5.89193">
        <ele>1661.6</ele>
        <time>2020-06-27T09:16:20.020Z</time>
      </trkpt>
      <trkpt lat="45.37612" lon="5.89258">
        <ele>1653.2</ele>
        <time>2020-06-27T09:16:33.416Z</time>
      </trkpt>
      <trkpt lat="45.37696" lon="5.89309">
        <ele>1651.6</ele>
        <time>2020-06-27T09:16:52.989Z</time>
      </trkpt>
      <trkpt lat="45.3783" lon="5.89341">
        <ele>1651</ele>
        <time>2020-06-27T09:17:52.585Z</time>
      </trkpt>
      <trkpt lat="45.37884" lon="5.89346">
        <ele>1651</ele>
        <time>2020-06-27T09:18:17.927Z</time>
      </trkpt>
      <trkpt lat="45.37931" lon="5.89348">
        <ele>1651</ele>
        <time>2020-06-27T09:18:39.946Z</time>
      </trkpt>
      <trkpt lat="45.38004" lon="5.89376">
        <ele>1652.1</ele>
        <time>2020-06-27T09:19:20.795Z</time>
      </trkpt>
      <trkpt lat="45.38096" lon="5.89408">
        <ele>1658.2</ele>
        <time>2020-06-27T09:20:46.429Z</time>
      </trkpt>
      <trkpt lat="45.38166" lon="5.89447">
        <ele>1664.8</ele>
        <time>2020-06-27T09:22:08.244Z</time>
      </trkpt>
      <trkpt lat="45.38257" lon="5.89472">
        <ele>1514.7</ele>
        <time>2020-06-27T09:22:21.851Z</time>
      </trkpt>
      <trkpt lat="45.3837" lon="5.8952">
        <ele>1479.3</ele>
        <time>2020-06-27T09:22:39.163Z</time>
      </trkpt>
      <trkpt lat="45.3846" lon="5.89573">
        <ele>1456.9</ele>
        <time>2020-06-27T09:22:53.462Z</time>
      </trkpt>
      <trkpt lat="45.38516" lon="5.8958">
        <ele>1448.1</ele>
        <time>2020-06-27T09:23:01.715Z</time>
      </trkpt>
      <trkpt lat="45.38599" lon="5.8964">
        <ele>1470.9</ele>
        <time>2020-06-27T09:25:49.852Z</time>
      </trkpt>
      <trkpt lat="45.38683" lon="5.89723">
        <ele>1491.2</ele>
        <time>2020-06-27T09:28:54.535Z</time>
      </trkpt>
      <trkpt lat="45.38775" lon="5.89799">
        <ele>1496.8</ele>
        <time>2020-06-27T09:30:23.167Z</time>
      </trkpt>
      <trkpt lat="45.38909" lon="5.89908">
        <ele>1506.4</ele>
        <time>2020-06-27T09:32:40.519Z</time>
      </trkpt>
      <trkpt lat="45.38962" lon="5.89942">
        <ele>1509.2</ele>
        <time>2020-06-27T09:33:27.554Z</time>
      </trkpt>
      <trkpt lat="45.39024" lon="5.89981">
        <ele>1510.6</ele>
        <time>2020-06-27T09:34:06.702Z</time>
      </trkpt>
      <trkpt lat="45.39081" lon="5.89949">
        <ele>1508.2</ele>
        <time>2020-06-27T09:34:17.112Z</time>
      </trkpt>
      <trkpt lat="45.39055" lon="5.90015">
        <ele>1528.2</ele>
        <time>2020-06-27T09:35:53.105Z</time>
      </trkpt>
      <trkpt lat="45.39117" lon="5.90017">
        <ele>1537.3</ele>
        <time>2020-06-27T09:37:45.123Z</time>
      </trkpt>
      <trkpt lat="45.39191" lon="5.89981">
        <ele>1529.8</ele>
        <time>2020-06-27T09:37:56.603Z</time>
      </trkpt>
      <trkpt lat="45.39254" lon="5.89977">
        <ele>1525.2</ele>
        <time>2020-06-27T09:38:05.862Z</time>
      </trkpt>
      <trkpt lat="45.39286" lon="5.89977">
        <ele>1519.2</ele>
        <time>2020-06-27T09:38:10.560Z</time>
      </trkpt>
      <trkpt lat="45.39285" lon="5.90105">
        <ele>1567.4</ele>
        <time>2020-06-27T09:40:52.931Z</time>
      </trkpt>
      <trkpt lat="45.39318" lon="5.90247">
        <ele>1558.2</ele>
        <time>2020-06-27T09:41:08.351Z</time>
      </trkpt>
      <trkpt lat="45.39358" lon="5.90241">
        <ele>1543.5</ele>
        <time>2020-06-27T09:41:14.256Z</time>
      </trkpt>
      <trkpt lat="45.3942" lon="5.90204">
        <ele>1522.5</ele>
        <time>2020-06-27T09:41:24.125Z</time>
      </trkpt>
      <trkpt lat="45.39446" lon="5.90165">
        <ele>1513.9</ele>
        <time>2020-06-27T09:41:29.669Z</time>
      </trkpt>
      <trkpt lat="45.39491" lon="5.90103">
        <ele>1499.9</ele>
        <time>2020-06-27T09:41:38.862Z</time>
      </trkpt>
      <trkpt lat="45.39491" lon="5.9002">
        <ele>1486</ele>
        <time>2020-06-27T09:41:47.419Z</time>
      </trkpt>
      <trkpt lat="45.39524" lon="5.9002">
        <ele>1459.1</ele>
        <time>2020-06-27T09:41:52.264Z</time>
      </trkpt>
      <trkpt lat="45.39572" lon="5.90088">
        <ele>1461.7</ele>
        <time>2020-06-27T09:42:41.174Z</time>
      </trkpt>
      <trkpt lat="45.39595" lon="5.90088">
        <ele>1446.2</ele>
        <time>2020-06-27T09:42:44.551Z</time>
      </trkpt>
      <trkpt lat="45.39774" lon="5.90329">
        <ele>1416.5</ele>
        <time>2020-06-27T09:43:20.715Z</time>
      </trkpt>
      <trkpt lat="45.39771" lon="5.90241">
        <ele>1390.1</ele>
        <time>2020-06-27T09:43:29.798Z</time>
      </trkpt>
      <trkpt lat="45.39803" lon="5.90268">
        <ele>1392.9</ele>
        <time>2020-06-27T09:44:06.300Z</time>
      </trkpt>
      <trkpt lat="45.39822" lon="5.9026">
        <ele>1379.7</ele>
        <time>2020-06-27T09:44:09.209Z</time>
      </trkpt>
      <trkpt lat="45.39886" lon="5.90296">
        <ele>1363.1</ele>
        <time>2020-06-27T09:44:19.311Z</time>
      </trkpt>
      <trkpt lat="45.39954" lon="5.90288">
        <ele>1344.6</ele>
        <time>2020-06-27T09:44:29.328Z</time>
      </trkpt>
      <trkpt lat="45.40021" lon="5.90376">
        <ele>1354.2</ele>
        <time>2020-06-27T09:46:26.402Z</time>
      </trkpt>
      <trkpt lat="45.40112" lon="5.90404">
        <ele>1339.7</ele>
        <time>2020-06-27T09:46:40.070Z</time>
      </trkpt>
      <trkpt lat="45.40173" lon="5.90399">
        <ele>1323.9</ele>
        <time>2020-06-27T09:46:49.040Z</time>
      </trkpt>
      <trkpt lat="45.40222" lon="5.90425">
        <ele>1338.7</ele>
        <time>2020-06-27T09:48:23.491Z</time>
      </trkpt>
      <trkpt lat="45.40297" lon="5.90404">
        <ele>1306.8</ele>
        <time>2020-06-27T09:48:34.712Z</time>
      </trkpt>
      <trkpt lat="45.40353" lon="5.90371">
        <ele>1311</ele>
        <time>2020-06-27T09:49:31.522Z</time>
      </trkpt>
      <trkpt lat="45.40362" lon="5.90279">
        <ele>1284.9</ele>
        <time>2020-06-27T09:49:41.097Z</time>
      </trkpt>
      <trkpt lat="45.40318" lon="5.90281">
        <ele>1266.3</ele>
        <time>2020-06-27T09:49:47.560Z</time>
      </trkpt>
      <trkpt lat="45.40324" lon="5.90223">
        <ele>1242.5</ele>
        <time>2020-06-27T09:49:53.603Z</time>
      </trkpt>
      <trkpt lat="45.40312" lon="5.90195">
        <ele>1235.2</ele>
        <time>2020-06-27T09:49:56.984Z</time>
      </trkpt>
      <trkpt lat="45.40326" lon="5.90146">
        <ele>1217.5</ele>
        <time>2020-06-27T09:50:02.437Z</time>
      </trkpt>
      <trkpt lat="45.40338" lon="5.90077">
        <ele>1209.8</ele>
        <time>2020-06-27T09:50:09.765Z</time>
      </trkpt>
      <trkpt lat="45.40347" lon="5.89985">
        <ele>1185.7</ele>
        <time>2020-06-27T09:50:19.339Z</time>
      </trkpt>
      <trkpt lat="45.40365" lon="5.89927">
        <ele>1178.6</ele>
        <time>2020-06-27T09:50:25.876Z</time>
      </trkpt>
      <trkpt lat="45.40387" lon="5.89856">
        <ele>1158.9</ele>
        <time>2020-06-27T09:50:33.876Z</time>
      </trkpt>
      <trkpt lat="45.40402" lon="5.89749">
        <ele>1130.3</ele>
        <time>2020-06-27T09:50:45.123Z</time>
      </trkpt>
      <trkpt lat="45.40429" lon="5.89651">
        <ele>1136.7</ele>
        <time>2020-06-27T09:52:04.730Z</time>
      </trkpt>
      <trkpt lat="45.40463" lon="5.89586">
        <ele>1142.2</ele>
        <time>2020-06-27T09:53:11.840Z</time>
      </trkpt>
      <trkpt lat="45.40511" lon="5.89551">
        <ele>1139.4</ele>
        <time>2020-06-27T09:53:20.005Z</time>
      </trkpt>
      <trkpt lat="45.40534" lon="5.89515">
        <ele>1131.4</ele>
        <time>2020-06-27T09:53:25.022Z</time>
      </trkpt>
      <trkpt lat="45.40607" lon="5.89515">
        <ele>1130</ele>
        <time>2020-06-27T09:53:40.361Z</time>
      </trkpt>
      <trkpt lat="45.40664" lon="5.89538">
        <ele>1130.8</ele>
        <time>2020-06-27T09:54:12.020Z</time>
      </trkpt>
      <trkpt lat="45.40721" lon="5.89544">
        <ele>1128.5</ele>
        <time>2020-06-27T09:54:21.633Z</time>
      </trkpt>
      <trkpt lat="45.40771" lon="5.89528">
        <ele>1128.6</ele>
        <time>2020-06-27T09:54:46.068Z</time>
      </trkpt>
      <trkpt lat="45.40785" lon="5.89531">
        <ele>1131</ele>
        <time>2020-06-27T09:55:11.640Z</time>
      </trkpt>
      <trkpt lat="45.40849" lon="5.89476">
        <ele>1127.3</ele>
        <time>2020-06-27T09:55:23.197Z</time>
      </trkpt>
      <trkpt lat="45.40858" lon="5.89385">
        <ele>1109.8</ele>
        <time>2020-06-27T09:55:32.669Z</time>
      </trkpt>
      <trkpt lat="45.40849" lon="5.89339">
        <ele>1095.8</ele>
        <time>2020-06-27T09:55:37.591Z</time>
      </trkpt>
      <trkpt lat="45.40881" lon="5.8929">
        <ele>1099.6</ele>
        <time>2020-06-27T09:56:25.821Z</time>
      </trkpt>
      <trkpt lat="45.40954" lon="5.89235">
        <ele>1118.8</ele>
        <time>2020-06-27T09:58:54.988Z</time>
      </trkpt>
      <trkpt lat="45.41013" lon="5.89151">
        <ele>1124.8</ele>
        <time>2020-06-27T10:00:14.753Z</time>
      </trkpt>
      <trkpt lat="45.41032" lon="5.89111">
        <ele>1127.6</ele>
        <time>2020-06-27T10:00:50.052Z</time>
      </trkpt>
      <trkpt lat="45.41034" lon="5.89059">
        <ele>1120.4</ele>
        <time>2020-06-27T10:00:55.420Z</time>
      </trkpt>
      <trkpt lat="45.41041" lon="5.88972">
        <ele>1105.9</ele>
        <time>2020-06-27T10:01:04.445Z</time>
      </trkpt>
      <trkpt lat="45.41087" lon="5.8891">
        <ele>1111.9</ele>
        <time>2020-06-27T10:02:17.809Z</time>
      </trkpt>
      <trkpt lat="45.41146" lon="5.88816">
        <ele>1077.7</ele>
        <time>2020-06-27T10:02:30.804Z</time>
      </trkpt>
      <trkpt lat="45.41262" lon="5.88633">
        <ele>1053.8</ele>
        <time>2020-06-27T10:02:56.216Z</time>
      </trkpt>
      <trkpt lat="45.41255" lon="5.88523">
        <ele>1042.7</ele>
        <time>2020-06-27T10:03:07.599Z</time>
      </trkpt>
      <trkpt lat="45.41262" lon="5.88386">
        <ele>1038.8</ele>
        <time>2020-06-27T10:03:23.785Z</time>
      </trkpt>
      <trkpt lat="45.41246" lon="5.88282">
        <ele>1014.4</ele>
        <time>2020-06-27T10:03:34.758Z</time>
      </trkpt>
      <trkpt lat="45.41262" lon="5.88175">
        <ele>1022.6</ele>
        <time>2020-06-27T10:05:14.892Z</time>
      </trkpt>
      <trkpt lat="45.41292" lon="5.88067">
        <ele>1008.6</ele>
        <time>2020-06-27T10:05:26.862Z</time>
      </trkpt>
      <trkpt lat="45.41317" lon="5.87967">
        <ele>1002.6</ele>
        <time>2020-06-27T10:05:37.802Z</time>
      </trkpt>
      <trkpt lat="45.41372" lon="5.87771">
        <ele>1006.3</ele>
        <time>2020-06-27T10:07:07.769Z</time>
      </trkpt>
      <trkpt lat="45.41404" lon="5.87719">
        <ele>1002.6</ele>
        <time>2020-06-27T10:07:14.896Z</time>
      </trkpt>
      <trkpt lat="45.41482" lon="5.87654">
        <ele>1004.9</ele>
        <time>2020-06-27T10:08:10.079Z</time>
      </trkpt>
      <trkpt lat="45.41532" lon="5.87619">
        <ele>1003.4</ele>
        <time>2020-06-27T10:08:20.801Z</time>
      </trkpt>
      <trkpt lat="45.41541" lon="5.87521">
        <ele>992.6</ele>
        <time>2020-06-27T10:08:30.987Z</time>
      </trkpt>
      <trkpt lat="45.41573" lon="5.87498">
        <ele>988.3</ele>
        <time>2020-06-27T10:08:36.249Z</time>
      </trkpt>
      <trkpt lat="45.41573" lon="5.87391">
        <ele>977.1</ele>
        <time>2020-06-27T10:08:47.276Z</time>
      </trkpt>
      <trkpt lat="45.41566" lon="5.87336">
        <ele>975.1</ele>
        <time>2020-06-27T10:08:53.266Z</time>
      </trkpt>
      <trkpt lat="45.41545" lon="5.87267">
        <ele>968</ele>
        <time>2020-06-27T10:09:01.016Z</time>
      </trkpt>
      <trkpt lat="45.41593" lon="5.87202">
        <ele>959.7</ele>
        <time>2020-06-27T10:09:10.739Z</time>
      </trkpt>
      <trkpt lat="45.41694" lon="5.87154">
        <ele>951.5</ele>
        <time>2020-06-27T10:09:26.370Z</time>
      </trkpt>
      <trkpt lat="45.41769" lon="5.87131">
        <ele>953.3</ele>
        <time>2020-06-27T10:10:12.131Z</time>
      </trkpt>
      <trkpt lat="45.41803" lon="5.87053">
        <ele>928.2</ele>
        <time>2020-06-27T10:10:21.593Z</time>
      </trkpt>
      <trkpt lat="45.41824" lon="5.87043">
        <ele>927.8</ele>
        <time>2020-06-27T10:10:26.308Z</time>
      </trkpt>
      <trkpt lat="45.41751" lon="5.87001">
        <ele>912.6</ele>
        <time>2020-06-27T10:10:37.866Z</time>
      </trkpt>
      <trkpt lat="45.41682" lon="5.86929">
        <ele>895.3</ele>
        <time>2020-06-27T10:10:50.423Z</time>
      </trkpt>
      <trkpt lat="45.41646" lon="5.86877">
        <ele>881.3</ele>
        <time>2020-06-27T10:10:57.950Z</time>
      </trkpt>
      <trkpt lat="45.41616" lon="5.86841">
        <ele>878.1</ele>
        <time>2020-06-27T10:11:03.708Z</time>
      </trkpt>
      <trkpt lat="45.41555" lon="5.8676">
        <ele>863.4</ele>
        <time>2020-06-27T10:11:15.951Z</time>
      </trkpt>
      <trkpt lat="45.415" lon="5.86682">
        <ele>850.4</ele>
        <time>2020-06-27T10:11:27.345Z</time>
      </trkpt>
      <trkpt lat="45.41459" lon="5.86633">
        <ele>845.3</ele>
        <time>2020-06-27T10:11:35.202Z</time>
      </trkpt>
      <trkpt lat="45.41429" lon="5.86565">
        <ele>840.6</ele>
        <time>2020-06-27T10:11:43.479Z</time>
      </trkpt>
      <trkpt lat="45.4139" lon="5.86529">
        <ele>825.2</ele>
        <time>2020-06-27T10:11:50.301Z</time>
      </trkpt>
      <trkpt lat="45.41374" lon="5.86445">
        <ele>819.7</ele>
        <time>2020-06-27T10:11:59.271Z</time>
      </trkpt>
      <trkpt lat="45.41367" lon="5.86379">
        <ele>811.9</ele>
        <time>2020-06-27T10:12:06.151Z</time>
      </trkpt>
      <trkpt lat="45.4134" lon="5.86256">
        <ele>790.9</ele>
        <time>2020-06-27T10:12:19.432Z</time>
      </trkpt>
      <trkpt lat="45.41354" lon="5.86171">
        <ele>775.9</ele>
        <time>2020-06-27T10:12:28.430Z</time>
      </trkpt>
      <trkpt lat="45.41365" lon="5.86022">
        <ele>750.5</ele>
        <time>2020-06-27T10:12:43.871Z</time>
      </trkpt>
      <trkpt lat="45.41365" lon="5.85888">
        <ele>720</ele>
        <time>2020-06-27T10:12:57.681Z</time>
      </trkpt>
      <trkpt lat="45.41367" lon="5.85768">
        <ele>698</ele>
        <time>2020-06-27T10:13:10.051Z</time>
      </trkpt>
      <trkpt lat="45.4139" lon="5.85644">
        <ele>670.3</ele>
        <time>2020-06-27T10:13:23.269Z</time>
      </trkpt>
      <trkpt lat="45.4144" lon="5.85553">
        <ele>662.1</ele>
        <time>2020-06-27T10:13:35.179Z</time>
      </trkpt>
      <trkpt lat="45.41436" lon="5.85556">
        <ele>662.1</ele>
        <time>2020-06-27T10:13:37.296Z</time>
      </trkpt>
      <trkpt lat="45.41434" lon="5.85455">
        <ele>652.4</ele>
        <time>2020-06-27T10:13:47.709Z</time>
      </trkpt>
      <trkpt lat="45.41372" lon="5.85449">
        <ele>651.9</ele>
        <time>2020-06-27T10:14:02.750Z</time>
      </trkpt>
      <trkpt lat="45.41328" lon="5.85398">
        <ele>657.9</ele>
        <time>2020-06-27T10:15:15.947Z</time>
      </trkpt>
      <trkpt lat="45.41259" lon="5.85361">
        <ele>663.7</ele>
        <time>2020-06-27T10:16:30.281Z</time>
      </trkpt>
      <trkpt lat="45.41178" lon="5.85307">
        <ele>674.4</ele>
        <time>2020-06-27T10:18:44.974Z</time>
      </trkpt>
      <trkpt lat="45.41119" lon="5.85295">
        <ele>676.4</ele>
        <time>2020-06-27T10:19:25.270Z</time>
      </trkpt>
      <trkpt lat="45.41102" lon="5.85231">
        <ele>681.9</ele>
        <time>2020-06-27T10:20:33.391Z</time>
      </trkpt>
      <trkpt lat="45.4114" lon="5.85207">
        <ele>687.5</ele>
        <time>2020-06-27T10:21:48.474Z</time>
      </trkpt>
      <trkpt lat="45.41232" lon="5.8524">
        <ele>692.5</ele>
        <time>2020-06-27T10:23:07.559Z</time>
      </trkpt>
      <trkpt lat="45.41319" lon="5.85231">
        <ele>694.3</ele>
        <time>2020-06-27T10:23:57.928Z</time>
      </trkpt>
      <trkpt lat="45.41342" lon="5.85216">
        <ele>692</ele>
        <time>2020-06-27T10:24:01.642Z</time>
      </trkpt>
      <trkpt lat="45.41287" lon="5.85109">
        <ele>713.9</ele>
        <time>2020-06-27T10:26:49.800Z</time>
      </trkpt>
      <trkpt lat="45.413" lon="5.85076">
        <ele>724.7</ele>
        <time>2020-06-27T10:27:37.782Z</time>
      </trkpt>
      <trkpt lat="45.41366" lon="5.85009">
        <ele>729.7</ele>
        <time>2020-06-27T10:28:49.651Z</time>
      </trkpt>
      <trkpt lat="45.41391" lon="5.84967">
        <ele>742.8</ele>
        <time>2020-06-27T10:29:59.474Z</time>
      </trkpt>
      <trkpt lat="45.41406" lon="5.84885">
        <ele>754.2</ele>
        <time>2020-06-27T10:31:46.920Z</time>
      </trkpt>
      <trkpt lat="45.41368" lon="5.84842">
        <ele>759.2</ele>
        <time>2020-06-27T10:32:47.817Z</time>
      </trkpt>
      <trkpt lat="45.41302" lon="5.84812">
        <ele>780.5</ele>
        <time>2020-06-27T10:34:52.953Z</time>
      </trkpt>
      <trkpt lat="45.41289" lon="5.84809">
        <ele>781.9</ele>
        <time>2020-06-27T10:35:10.041Z</time>
      </trkpt>
      <trkpt lat="45.4127" lon="5.84745">
        <ele>801.6</ele>
        <time>2020-06-27T10:36:38.151Z</time>
      </trkpt>
      <trkpt lat="45.41311" lon="5.84627">
        <ele>818</ele>
        <time>2020-06-27T10:39:25.099Z</time>
      </trkpt>
      <trkpt lat="45.41317" lon="5.84575">
        <ele>823.9</ele>
        <time>2020-06-27T10:40:31.919Z</time>
      </trkpt>
      <trkpt lat="45.41323" lon="5.84545">
        <ele>825.7</ele>
        <time>2020-06-27T10:40:54.644Z</time>
      </trkpt>
      <trkpt lat="45.413" lon="5.8453">
        <ele>827.3</ele>
        <time>2020-06-27T10:41:17.327Z</time>
      </trkpt>
      <trkpt lat="45.41247" lon="5.84563">
        <ele>834</ele>
        <time>2020-06-27T10:42:40.617Z</time>
      </trkpt>
      <trkpt lat="45.412" lon="5.84527">
        <ele>838.8</ele>
        <time>2020-06-27T10:43:39.806Z</time>
      </trkpt>
      <trkpt lat="45.41149" lon="5.84475">
        <ele>854.6</ele>
        <time>2020-06-27T10:45:33.093Z</time>
      </trkpt>
      <trkpt lat="45.41085" lon="5.84457">
        <ele>859.3</ele>
        <time>2020-06-27T10:46:35.529Z</time>
      </trkpt>
      <trkpt lat="45.4114" lon="5.84418">
        <ele>858.9</ele>
        <time>2020-06-27T10:47:01.690Z</time>
      </trkpt>
      <trkpt lat="45.41125" lon="5.84375">
        <ele>867.7</ele>
        <time>2020-06-27T10:48:02.576Z</time>
      </trkpt>
      <trkpt lat="45.41095" lon="5.8432">
        <ele>878.6</ele>
        <time>2020-06-27T10:49:30.896Z</time>
      </trkpt>
      <trkpt lat="45.41104" lon="5.84284">
        <ele>886.1</ele>
        <time>2020-06-27T10:50:19.353Z</time>
      </trkpt>
      <trkpt lat="45.41147" lon="5.84232">
        <ele>899.6</ele>
        <time>2020-06-27T10:52:01.237Z</time>
      </trkpt>
      <trkpt lat="45.41181" lon="5.84199">
        <ele>894.1</ele>
        <time>2020-06-27T10:52:07.278Z</time>
      </trkpt>
      <trkpt lat="45.41227" lon="5.84144">
        <ele>901.6</ele>
        <time>2020-06-27T10:53:43.824Z</time>
      </trkpt>
      <trkpt lat="45.41244" lon="5.84023">
        <ele>915.1</ele>
        <time>2020-06-27T10:56:20.295Z</time>
      </trkpt>
      <trkpt lat="45.41302" lon="5.8389">
        <ele>922.9</ele>
        <time>2020-06-27T10:58:04.628Z</time>
      </trkpt>
      <trkpt lat="45.4137" lon="5.83774">
        <ele>928.9</ele>
        <time>2020-06-27T10:59:35.397Z</time>
      </trkpt>
      <trkpt lat="45.41347" lon="5.83738">
        <ele>929.7</ele>
        <time>2020-06-27T10:59:55.768Z</time>
      </trkpt>
      <trkpt lat="45.41283" lon="5.83707">
        <ele>941.7</ele>
        <time>2020-06-27T11:01:57.870Z</time>
      </trkpt>
      <trkpt lat="45.41227" lon="5.83671">
        <ele>956.1</ele>
        <time>2020-06-27T11:03:48.844Z</time>
      </trkpt>
      <trkpt lat="45.41198" lon="5.83601">
        <ele>952.3</ele>
        <time>2020-06-27T11:03:56.522Z</time>
      </trkpt>
      <trkpt lat="45.41147" lon="5.83626">
        <ele>967.4</ele>
        <time>2020-06-27T11:05:33.944Z</time>
      </trkpt>
      <trkpt lat="45.41093" lon="5.83601">
        <ele>969.9</ele>
        <time>2020-06-27T11:06:18.506Z</time>
      </trkpt>
      <trkpt lat="45.41063" lon="5.83492">
        <ele>985.3</ele>
        <time>2020-06-27T11:08:46.965Z</time>
      </trkpt>
      <trkpt lat="45.41019" lon="5.83425">
        <ele>993</ele>
        <time>2020-06-27T11:10:23.861Z</time>
      </trkpt>
      <trkpt lat="45.40993" lon="5.83346">
        <ele>1003.5</ele>
        <time>2020-06-27T11:12:14.499Z</time>
      </trkpt>
      <trkpt lat="45.40993" lon="5.83295">
        <ele>1013.4</ele>
        <time>2020-06-27T11:13:19.170Z</time>
      </trkpt>
      <trkpt lat="45.4094" lon="5.83264">
        <ele>1019.8</ele>
        <time>2020-06-27T11:14:37.925Z</time>
      </trkpt>
      <trkpt lat="45.4094" lon="5.83161">
        <ele>1043.9</ele>
        <time>2020-06-27T11:16:48.537Z</time>
      </trkpt>
      <trkpt lat="45.40919" lon="5.83091">
        <ele>1046.7</ele>
        <time>2020-06-27T11:17:32.994Z</time>
      </trkpt>
      <trkpt lat="45.40827" lon="5.82961">
        <ele>1073.5</ele>
        <time>2020-06-27T11:21:27.069Z</time>
      </trkpt>
      <trkpt lat="45.40742" lon="5.82894">
        <ele>1084</ele>
        <time>2020-06-27T11:23:35.490Z</time>
      </trkpt>
      <trkpt lat="45.40663" lon="5.82867">
        <ele>1088.9</ele>
        <time>2020-06-27T11:24:46.835Z</time>
      </trkpt>
      <trkpt lat="45.40612" lon="5.82864">
        <ele>1092.6</ele>
        <time>2020-06-27T11:25:35.854Z</time>
      </trkpt>
      <trkpt lat="45.40527" lon="5.82894">
        <ele>1106.7</ele>
        <time>2020-06-27T11:28:14.031Z</time>
      </trkpt>
      <trkpt lat="45.40505" lon="5.82885">
        <ele>1109</ele>
        <time>2020-06-27T11:28:42.038Z</time>
      </trkpt>
      <trkpt lat="45.40521" lon="5.82836">
        <ele>1111</ele>
        <time>2020-06-27T11:29:13.667Z</time>
      </trkpt>
      <trkpt lat="45.40529" lon="5.828">
        <ele>1125</ele>
        <time>2020-06-27T11:30:01.554Z</time>
      </trkpt>
      <trkpt lat="45.40535" lon="5.82782">
        <ele>1128</ele>
        <time>2020-06-27T11:30:26.823Z</time>
      </trkpt>
      <trkpt lat="45.40527" lon="5.82767">
        <ele>1130</ele>
        <time>2020-06-27T11:30:50.711Z</time>
      </trkpt>
      <trkpt lat="45.4054" lon="5.82752">
        <ele>1131</ele>
        <time>2020-06-27T11:31:05.348Z</time>
      </trkpt>
      <trkpt lat="45.40541" lon="5.82724">
        <ele>1152.2</ele>
        <time>2020-06-27T11:31:40.902Z</time>
      </trkpt>
      <trkpt lat="45.4051" lon="5.82709">
        <ele>1152.9</ele>
        <time>2020-06-27T11:31:59.968Z</time>
      </trkpt>
      <trkpt lat="45.4048" lon="5.82658">
        <ele>1164.3</ele>
        <time>2020-06-27T11:33:24.345Z</time>
      </trkpt>
      <trkpt lat="45.40413" lon="5.82594">
        <ele>1168.6</ele>
        <time>2020-06-27T11:34:31.864Z</time>
      </trkpt>
      <trkpt lat="45.40356" lon="5.82588">
        <ele>1180.1</ele>
        <time>2020-06-27T11:36:15.102Z</time>
      </trkpt>
      <trkpt lat="45.40305" lon="5.82527">
        <ele>1204.5</ele>
        <time>2020-06-27T11:38:15.397Z</time>
      </trkpt>
      <trkpt lat="45.40255" lon="5.82505">
        <ele>1215.8</ele>
        <time>2020-06-27T11:39:49.922Z</time>
      </trkpt>
      <trkpt lat="45.40229" lon="5.82497">
        <ele>1222</ele>
        <time>2020-06-27T11:40:37.969Z</time>
      </trkpt>
      <trkpt lat="45.40215" lon="5.82457">
        <ele>1221.9</ele>
        <time>2020-06-27T11:40:51.981Z</time>
      </trkpt>
      <trkpt lat="45.40198" lon="5.82415">
        <ele>1219.6</ele>
        <time>2020-06-27T11:40:56.978Z</time>
      </trkpt>
      <trkpt lat="45.40164" lon="5.82366">
        <ele>1223.9</ele>
        <time>2020-06-27T11:41:50.132Z</time>
      </trkpt>
      <trkpt lat="45.40145" lon="5.82324">
        <ele>1226.5</ele>
        <time>2020-06-27T11:42:24.248Z</time>
      </trkpt>
      <trkpt lat="45.40095" lon="5.82254">
        <ele>1233.8</ele>
        <time>2020-06-27T11:43:53.201Z</time>
      </trkpt>
      <trkpt lat="45.40041" lon="5.82208">
        <ele>1256.1</ele>
        <time>2020-06-27T11:45:46.856Z</time>
      </trkpt>
      <trkpt lat="45.39994" lon="5.82211">
        <ele>1272.1</ele>
        <time>2020-06-27T11:47:11.836Z</time>
      </trkpt>
      <trkpt lat="45.39925" lon="5.82202">
        <ele>1283.5</ele>
        <time>2020-06-27T11:49:16.991Z</time>
      </trkpt>
      <trkpt lat="45.39913" lon="5.82196">
        <ele>1309</ele>
        <time>2020-06-27T11:49:39.963Z</time>
      </trkpt>
      <trkpt lat="45.399" lon="5.82206">
        <ele>1314</ele>
        <time>2020-06-27T11:50:06.651Z</time>
      </trkpt>
      <trkpt lat="45.39875" lon="5.82194">
        <ele>1319.3</ele>
        <time>2020-06-27T11:50:54.304Z</time>
      </trkpt>
      <trkpt lat="45.39869" lon="5.82211">
        <ele>1324</ele>
        <time>2020-06-27T11:51:18.436Z</time>
      </trkpt>
      <trkpt lat="45.39834" lon="5.82186">
        <ele>1326</ele>
        <time>2020-06-27T11:51:50.726Z</time>
      </trkpt>
      <trkpt lat="45.39825" lon="5.82161">
        <ele>1330</ele>
        <time>2020-06-27T11:52:26.358Z</time>
      </trkpt>
      <trkpt lat="45.398" lon="5.82142">
        <ele>1338.4</ele>
        <time>2020-06-27T11:53:17.543Z</time>
      </trkpt>
      <trkpt lat="45.39774" lon="5.82125">
        <ele>1343</ele>
        <time>2020-06-27T11:54:09.219Z</time>
      </trkpt>
      <trkpt lat="45.39756" lon="5.82122">
        <ele>1344</ele>
        <time>2020-06-27T11:54:24.580Z</time>
      </trkpt>
      <trkpt lat="45.39745" lon="5.82099">
        <ele>1355.1</ele>
        <time>2020-06-27T11:54:59.876Z</time>
      </trkpt>
      <trkpt lat="45.39758" lon="5.82048">
        <ele>1346.1</ele>
        <time>2020-06-27T11:55:05.469Z</time>
      </trkpt>
      <trkpt lat="45.39735" lon="5.82032">
        <ele>1357</ele>
        <time>2020-06-27T11:55:51.705Z</time>
      </trkpt>
      <trkpt lat="45.39717" lon="5.82005">
        <ele>1358.2</ele>
        <time>2020-06-27T11:56:12.552Z</time>
      </trkpt>
      <trkpt lat="45.39691" lon="5.81987">
        <ele>1368.3</ele>
        <time>2020-06-27T11:57:04.770Z</time>
      </trkpt>
      <trkpt lat="45.39651" lon="5.81972">
        <ele>1379.1</ele>
        <time>2020-06-27T11:58:19.484Z</time>
      </trkpt>
      <trkpt lat="45.39568" lon="5.8195">
        <ele>1407.9</ele>
        <time>2020-06-27T12:00:51.980Z</time>
      </trkpt>
      <trkpt lat="45.39563" lon="5.81966">
        <ele>1408</ele>
        <time>2020-06-27T12:00:58.203Z</time>
      </trkpt>
      <trkpt lat="45.39595" lon="5.82019">
        <ele>1388</ele>
        <time>2020-06-27T12:01:05.408Z</time>
      </trkpt>
      <trkpt lat="45.396" lon="5.82035">
        <ele>1388</ele>
        <time>2020-06-27T12:01:11.167Z</time>
      </trkpt>
      <trkpt lat="45.39551" lon="5.8202">
        <ele>1416.5</ele>
        <time>2020-06-27T12:02:41.697Z</time>
      </trkpt>
      <trkpt lat="45.39524" lon="5.82019">
        <ele>1425</ele>
        <time>2020-06-27T12:03:30.483Z</time>
      </trkpt>
      <trkpt lat="45.39502" lon="5.81996">
        <ele>1430.6</ele>
        <time>2020-06-27T12:04:19.780Z</time>
      </trkpt>
      <trkpt lat="45.39461" lon="5.81929">
        <ele>1446.4</ele>
        <time>2020-06-27T12:06:12.503Z</time>
      </trkpt>
      <trkpt lat="45.39393" lon="5.81917">
        <ele>1467.1</ele>
        <time>2020-06-27T12:08:16.269Z</time>
      </trkpt>
      <trkpt lat="45.39295" lon="5.81944">
        <ele>1484.3</ele>
        <time>2020-06-27T12:11:16.567Z</time>
      </trkpt>
      <trkpt lat="45.39264" lon="5.8196">
        <ele>1485</ele>
        <time>2020-06-27T12:11:35.736Z</time>
      </trkpt>
      <trkpt lat="45.3924" lon="5.81953">
        <ele>1491.3</ele>
        <time>2020-06-27T12:12:19.986Z</time>
      </trkpt>
      <trkpt lat="45.39224" lon="5.81951">
        <ele>1492</ele>
        <time>2020-06-27T12:12:32.506Z</time>
      </trkpt>
      <trkpt lat="45.39222" lon="5.81927">
        <ele>1495</ele>
        <time>2020-06-27T12:13:03.162Z</time>
      </trkpt>
      <trkpt lat="45.39191" lon="5.81906">
        <ele>1515.3</ele>
        <time>2020-06-27T12:14:05.170Z</time>
      </trkpt>
      <trkpt lat="45.39155" lon="5.8191">
        <ele>1516</ele>
        <time>2020-06-27T12:14:25.731Z</time>
      </trkpt>
      <trkpt lat="45.3908" lon="5.81893">
        <ele>1529.6</ele>
        <time>2020-06-27T12:16:42.907Z</time>
      </trkpt>
      <trkpt lat="45.39009" lon="5.81893">
        <ele>1531.9</ele>
        <time>2020-06-27T12:17:30.184Z</time>
      </trkpt>
      <trkpt lat="45.38963" lon="5.81893">
        <ele>1548.5</ele>
        <time>2020-06-27T12:18:53.273Z</time>
      </trkpt>
      <trkpt lat="45.3895" lon="5.81878">
        <ele>1551.8</ele>
        <time>2020-06-27T12:19:23.496Z</time>
      </trkpt>
      <trkpt lat="45.38943" lon="5.81874">
        <ele>1552.9</ele>
        <time>2020-06-27T12:19:37.120Z</time>
      </trkpt>
      <trkpt lat="45.38934" lon="5.81892">
        <ele>1555</ele>
        <time>2020-06-27T12:20:05.150Z</time>
      </trkpt>
      <trkpt lat="45.38911" lon="5.81872">
        <ele>1580.5</ele>
        <time>2020-06-27T12:20:53.828Z</time>
      </trkpt>
      <trkpt lat="45.38875" lon="5.81835">
        <ele>1587.8</ele>
        <time>2020-06-27T12:22:14.024Z</time>
      </trkpt>
      <trkpt lat="45.38857" lon="5.81774">
        <ele>1586.4</ele>
        <time>2020-06-27T12:22:22.667Z</time>
      </trkpt>
      <trkpt lat="45.38826" lon="5.81723">
        <ele>1592.7</ele>
        <time>2020-06-27T12:23:47.693Z</time>
      </trkpt>
      <trkpt lat="45.38783" lon="5.81695">
        <ele>1595</ele>
        <time>2020-06-27T12:24:26.069Z</time>
      </trkpt>
      <trkpt lat="45.38747" lon="5.81693">
        <ele>1606.1</ele>
        <time>2020-06-27T12:25:31.144Z</time>
      </trkpt>
      <trkpt lat="45.38661" lon="5.81655">
        <ele>1611.5</ele>
        <time>2020-06-27T12:26:50.030Z</time>
      </trkpt>
      <trkpt lat="45.38587" lon="5.81629">
        <ele>1618.6</ele>
        <time>2020-06-27T12:28:17.044Z</time>
      </trkpt>
      <trkpt lat="45.38549" lon="5.81571">
        <ele>1634.2</ele>
        <time>2020-06-27T12:29:57.667Z</time>
      </trkpt>
      <trkpt lat="45.38502" lon="5.81513">
        <ele>1642.3</ele>
        <time>2020-06-27T12:31:45.043Z</time>
      </trkpt>
      <trkpt lat="45.38447" lon="5.81404">
        <ele>1656.3</ele>
        <time>2020-06-27T12:34:35.310Z</time>
      </trkpt>
      <trkpt lat="45.38334" lon="5.81356">
        <ele>1656.4</ele>
        <time>2020-06-27T12:35:30.965Z</time>
      </trkpt>
      <trkpt lat="45.38229" lon="5.81252">
        <ele>1663.3</ele>
        <time>2020-06-27T12:37:18.480Z</time>
      </trkpt>
      <trkpt lat="45.38097" lon="5.81204">
        <ele>1628.8</ele>
        <time>2020-06-27T12:37:38.482Z</time>
      </trkpt>
      <trkpt lat="45.37974" lon="5.81186">
        <ele>1637.2</ele>
        <time>2020-06-27T12:39:33.212Z</time>
      </trkpt>
      <trkpt lat="45.37869" lon="5.81133">
        <ele>1646.3</ele>
        <time>2020-06-27T12:41:28.333Z</time>
      </trkpt>
      <trkpt lat="45.3786" lon="5.81115">
        <ele>1649</ele>
        <time>2020-06-27T12:41:56.366Z</time>
      </trkpt>
      <trkpt lat="45.37836" lon="5.81097">
        <ele>1656</ele>
        <time>2020-06-27T12:42:45.364Z</time>
      </trkpt>
      <trkpt lat="45.37794" lon="5.81082">
        <ele>1677.3</ele>
        <time>2020-06-27T12:44:03.579Z</time>
      </trkpt>
      <trkpt lat="45.37768" lon="5.81091">
        <ele>1674</ele>
        <time>2020-06-27T12:44:07.507Z</time>
      </trkpt>
      <trkpt lat="45.37753" lon="5.81116">
        <ele>1671.1</ele>
        <time>2020-06-27T12:44:10.898Z</time>
      </trkpt>
      <trkpt lat="45.37746" lon="5.81102">
        <ele>1683</ele>
        <time>2020-06-27T12:44:32.701Z</time>
      </trkpt>
      <trkpt lat="45.37671" lon="5.81016">
        <ele>1696.4</ele>
        <time>2020-06-27T12:47:26.652Z</time>
      </trkpt>
      <trkpt lat="45.3764" lon="5.80959">
        <ele>1714</ele>
        <time>2020-06-27T12:48:58.117Z</time>
      </trkpt>
      <trkpt lat="45.3762" lon="5.80888">
        <ele>1731.4</ele>
        <time>2020-06-27T12:50:35.176Z</time>
      </trkpt>
      <trkpt lat="45.37524" lon="5.80819">
        <ele>1762.8</ele>
        <time>2020-06-27T12:53:49.427Z</time>
      </trkpt>
      <trkpt lat="45.37441" lon="5.80772">
        <ele>1777.5</ele>
        <time>2020-06-27T12:56:30.774Z</time>
      </trkpt>
      <trkpt lat="45.37426" lon="5.80773">
        <ele>1778</ele>
        <time>2020-06-27T12:56:40.892Z</time>
      </trkpt>
      <trkpt lat="45.3745" lon="5.80791">
        <ele>1777</ele>
        <time>2020-06-27T12:56:45.605Z</time>
      </trkpt>
      <trkpt lat="45.37458" lon="5.80814">
        <ele>1775.9</ele>
        <time>2020-06-27T12:56:48.138Z</time>
      </trkpt>
      <trkpt lat="45.37436" lon="5.80832">
        <ele>1780</ele>
        <time>2020-06-27T12:57:33.972Z</time>
      </trkpt>
      <trkpt lat="45.37412" lon="5.80867">
        <ele>1788</ele>
        <time>2020-06-27T12:58:36.033Z</time>
      </trkpt>
      <trkpt lat="45.37401" lon="5.80913">
        <ele>1789.4</ele>
        <time>2020-06-27T12:59:01.637Z</time>
      </trkpt>
      <trkpt lat="45.37382" lon="5.80954">
        <ele>1807</ele>
        <time>2020-06-27T13:00:03.961Z</time>
      </trkpt>
      <trkpt lat="45.37394" lon="5.80995">
        <ele>1810.5</ele>
        <time>2020-06-27T13:00:47.072Z</time>
      </trkpt>
      <trkpt lat="45.37383" lon="5.81002">
        <ele>1824</ele>
        <time>2020-06-27T13:01:08.836Z</time>
      </trkpt>
      <trkpt lat="45.37388" lon="5.81014">
        <ele>1824</ele>
        <time>2020-06-27T13:01:13.426Z</time>
      </trkpt>
      <trkpt lat="45.37378" lon="5.81012">
        <ele>1826</ele>
        <time>2020-06-27T13:01:31.666Z</time>
      </trkpt>
      <trkpt lat="45.37379" lon="5.81025">
        <ele>1826.7</ele>
        <time>2020-06-27T13:01:40.747Z</time>
      </trkpt>
      <trkpt lat="45.37349" lon="5.81002">
        <ele>1831</ele>
        <time>2020-06-27T13:02:36.465Z</time>
      </trkpt>
      <trkpt lat="45.37306" lon="5.8103">
        <ele>1822</ele>
        <time>2020-06-27T13:02:43.407Z</time>
      </trkpt>
      <trkpt lat="45.37262" lon="5.8104">
        <ele>1814.9</ele>
        <time>2020-06-27T13:02:49.949Z</time>
      </trkpt>
      <trkpt lat="45.37207" lon="5.81065">
        <ele>1784</ele>
        <time>2020-06-27T13:02:58.425Z</time>
      </trkpt>
      <trkpt lat="45.37153" lon="5.8107">
        <ele>1766.2</ele>
        <time>2020-06-27T13:03:06.370Z</time>
      </trkpt>
      <trkpt lat="45.37019" lon="5.81098">
        <ele>1805</ele>
        <time>2020-06-27T13:07:11.005Z</time>
      </trkpt>
      <trkpt lat="45.3695" lon="5.81085">
        <ele>1819.7</ele>
        <time>2020-06-27T13:09:16.725Z</time>
      </trkpt>
      <trkpt lat="45.36905" lon="5.81125">
        <ele>1805</ele>
        <time>2020-06-27T13:09:24.514Z</time>
      </trkpt>
      <trkpt lat="45.3685" lon="5.81171">
        <ele>1791.4</ele>
        <time>2020-06-27T13:09:33.880Z</time>
      </trkpt>
      <trkpt lat="45.36756" lon="5.81206">
        <ele>1757</ele>
        <time>2020-06-27T13:09:48.144Z</time>
      </trkpt>
      <trkpt lat="45.36717" lon="5.81212">
        <ele>1753</ele>
        <time>2020-06-27T13:09:53.903Z</time>
      </trkpt>
      <trkpt lat="45.36687" lon="5.81243">
        <ele>1770.2</ele>
        <time>2020-06-27T13:11:00.866Z</time>
      </trkpt>
      <trkpt lat="45.36671" lon="5.81262">
        <ele>1787</ele>
        <time>2020-06-27T13:11:38.504Z</time>
      </trkpt>
      <trkpt lat="45.36667" lon="5.81236">
        <ele>1777</ele>
        <time>2020-06-27T13:11:41.249Z</time>
      </trkpt>
      <trkpt lat="45.36621" lon="5.81212">
        <ele>1757.4</ele>
        <time>2020-06-27T13:11:48.442Z</time>
      </trkpt>
      <trkpt lat="45.36526" lon="5.81219">
        <ele>1754.5</ele>
        <time>2020-06-27T13:12:06.070Z</time>
      </trkpt>
      <trkpt lat="45.3648" lon="5.81211">
        <ele>1725</ele>
        <time>2020-06-27T13:12:12.874Z</time>
      </trkpt>
      <trkpt lat="45.36441" lon="5.81189">
        <ele>1704</ele>
        <time>2020-06-27T13:12:19.033Z</time>
      </trkpt>
      <trkpt lat="45.36409" lon="5.81133">
        <ele>1653</ele>
        <time>2020-06-27T13:12:26.478Z</time>
      </trkpt>
      <trkpt lat="45.36383" lon="5.81076">
        <ele>1631</ele>
        <time>2020-06-27T13:12:33.488Z</time>
      </trkpt>
      <trkpt lat="45.36336" lon="5.80985">
        <ele>1616.3</ele>
        <time>2020-06-27T13:12:45.138Z</time>
      </trkpt>
      <trkpt lat="45.36309" lon="5.80947">
        <ele>1608</ele>
        <time>2020-06-27T13:12:50.713Z</time>
      </trkpt>
      <trkpt lat="45.36262" lon="5.80946">
        <ele>1602.6</ele>
        <time>2020-06-27T13:12:57.614Z</time>
      </trkpt>
      <trkpt lat="45.36153" lon="5.80885">
        <ele>1561.7</ele>
        <time>2020-06-27T13:13:14.809Z</time>
      </trkpt>
      <trkpt lat="45.36117" lon="5.80867">
        <ele>1557</ele>
        <time>2020-06-27T13:13:20.411Z</time>
      </trkpt>
      <trkpt lat="45.36057" lon="5.80867">
        <ele>1543.9</ele>
        <time>2020-06-27T13:13:29.220Z</time>
      </trkpt>
      <trkpt lat="45.3604" lon="5.80867">
        <ele>1543.2</ele>
        <time>2020-06-27T13:13:32.054Z</time>
      </trkpt>
      <trkpt lat="45.36078" lon="5.80764">
        <ele>1535.3</ele>
        <time>2020-06-27T13:13:44.055Z</time>
      </trkpt>
      <trkpt lat="45.36125" lon="5.80703">
        <ele>1531.1</ele>
        <time>2020-06-27T13:13:52.651Z</time>
      </trkpt>
      <trkpt lat="45.36019" lon="5.80767">
        <ele>1541.1</ele>
        <time>2020-06-27T13:15:56.944Z</time>
      </trkpt>
      <trkpt lat="45.36033" lon="5.8072">
        <ele>1519</ele>
        <time>2020-06-27T13:16:02.210Z</time>
      </trkpt>
      <trkpt lat="45.36053" lon="5.80679">
        <ele>1509.7</ele>
        <time>2020-06-27T13:16:07.358Z</time>
      </trkpt>
      <trkpt lat="45.36076" lon="5.80637">
        <ele>1487</ele>
        <time>2020-06-27T13:16:12.851Z</time>
      </trkpt>
      <trkpt lat="45.36081" lon="5.80573">
        <ele>1475.3</ele>
        <time>2020-06-27T13:16:19.494Z</time>
      </trkpt>
      <trkpt lat="45.36067" lon="5.80608">
        <ele>1481.5</ele>
        <time>2020-06-27T13:17:10.609Z</time>
      </trkpt>
      <trkpt lat="45.36056" lon="5.80593">
        <ele>1479</ele>
        <time>2020-06-27T13:17:12.845Z</time>
      </trkpt>
      <trkpt lat="45.36054" lon="5.80626">
        <ele>1482</ele>
        <time>2020-06-27T13:17:52.299Z</time>
      </trkpt>
      <trkpt lat="45.36042" lon="5.8064">
        <ele>1482</ele>
        <time>2020-06-27T13:17:59.566Z</time>
      </trkpt>
      <trkpt lat="45.36023" lon="5.80646">
        <ele>1480.9</ele>
        <time>2020-06-27T13:18:02.401Z</time>
      </trkpt>
      <trkpt lat="45.36025" lon="5.80612">
        <ele>1473.4</ele>
        <time>2020-06-27T13:18:05.921Z</time>
      </trkpt>
      <trkpt lat="45.35997" lon="5.8064">
        <ele>1462.1</ele>
        <time>2020-06-27T13:18:10.945Z</time>
      </trkpt>
      <trkpt lat="45.35958" lon="5.80627">
        <ele>1450.2</ele>
        <time>2020-06-27T13:18:16.826Z</time>
      </trkpt>
      <trkpt lat="45.35916" lon="5.80649">
        <ele>1455.9</ele>
        <time>2020-06-27T13:19:31.142Z</time>
      </trkpt>
      <trkpt lat="45.35919" lon="5.80618">
        <ele>1439</ele>
        <time>2020-06-27T13:19:34.370Z</time>
      </trkpt>
      <trkpt lat="45.35936" lon="5.80615">
        <ele>1440.4</ele>
        <time>2020-06-27T13:19:52.078Z</time>
      </trkpt>
      <trkpt lat="45.35918" lon="5.80579">
        <ele>1401.1</ele>
        <time>2020-06-27T13:19:56.636Z</time>
      </trkpt>
      <trkpt lat="45.35938" lon="5.80574">
        <ele>1407.5</ele>
        <time>2020-06-27T13:20:33.315Z</time>
      </trkpt>
      <trkpt lat="45.35926" lon="5.80552">
        <ele>1405.3</ele>
        <time>2020-06-27T13:20:36.188Z</time>
      </trkpt>
      <trkpt lat="45.35955" lon="5.80542">
        <ele>1410.2</ele>
        <time>2020-06-27T13:21:30.086Z</time>
      </trkpt>
      <trkpt lat="45.35933" lon="5.80518">
        <ele>1399.6</ele>
        <time>2020-06-27T13:21:34.155Z</time>
      </trkpt>
      <trkpt lat="45.35957" lon="5.805">
        <ele>1385.8</ele>
        <time>2020-06-27T13:21:38.138Z</time>
      </trkpt>
      <trkpt lat="45.35931" lon="5.80473">
        <ele>1377.7</ele>
        <time>2020-06-27T13:21:42.863Z</time>
      </trkpt>
      <trkpt lat="45.35935" lon="5.80456">
        <ele>1374</ele>
        <time>2020-06-27T13:21:44.713Z</time>
      </trkpt>
      <trkpt lat="45.3595" lon="5.80451">
        <ele>1374.9</ele>
        <time>2020-06-27T13:21:58.064Z</time>
      </trkpt>
      <trkpt lat="45.35946" lon="5.80417">
        <ele>1367</ele>
        <time>2020-06-27T13:22:01.621Z</time>
      </trkpt>
      <trkpt lat="45.35923" lon="5.80385">
        <ele>1336.1</ele>
        <time>2020-06-27T13:22:06.343Z</time>
      </trkpt>
      <trkpt lat="45.3594" lon="5.80379">
        <ele>1333.6</ele>
        <time>2020-06-27T13:22:08.914Z</time>
      </trkpt>
      <trkpt lat="45.35948" lon="5.8036">
        <ele>1328.6</ele>
        <time>2020-06-27T13:22:11.199Z</time>
      </trkpt>
      <trkpt lat="45.3597" lon="5.8036">
        <ele>1326.7</ele>
        <time>2020-06-27T13:22:14.429Z</time>
      </trkpt>
      <trkpt lat="45.3597" lon="5.80333">
        <ele>1297.7</ele>
        <time>2020-06-27T13:22:17.214Z</time>
      </trkpt>
      <trkpt lat="45.36002" lon="5.80312">
        <ele>1293</ele>
        <time>2020-06-27T13:22:22.388Z</time>
      </trkpt>
      <trkpt lat="45.36038" lon="5.80269">
        <ele>1287.5</ele>
        <time>2020-06-27T13:22:29.288Z</time>
      </trkpt>
      <trkpt lat="45.35955" lon="5.80269">
        <ele>1291.2</ele>
        <time>2020-06-27T13:23:34.920Z</time>
      </trkpt>
      <trkpt lat="45.3598" lon="5.80254">
        <ele>1280.1</ele>
        <time>2020-06-27T13:23:38.903Z</time>
      </trkpt>
      <trkpt lat="45.35967" lon="5.80236">
        <ele>1266.4</ele>
        <time>2020-06-27T13:23:41.566Z</time>
      </trkpt>
      <trkpt lat="45.35978" lon="5.80221">
        <ele>1262.7</ele>
        <time>2020-06-27T13:23:43.802Z</time>
      </trkpt>
      <trkpt lat="45.36004" lon="5.80184">
        <ele>1246.8</ele>
        <time>2020-06-27T13:23:49.200Z</time>
      </trkpt>
      <trkpt lat="45.35976" lon="5.8016">
        <ele>1229.5</ele>
        <time>2020-06-27T13:23:53.999Z</time>
      </trkpt>
      <trkpt lat="45.36006" lon="5.80127">
        <ele>1227.1</ele>
        <time>2020-06-27T13:23:59.232Z</time>
      </trkpt>
      <trkpt lat="45.35972" lon="5.80111">
        <ele>1219.2</ele>
        <time>2020-06-27T13:24:04.490Z</time>
      </trkpt>
      <trkpt lat="45.35993" lon="5.80051">
        <ele>1185.3</ele>
        <time>2020-06-27T13:24:11.404Z</time>
      </trkpt>
      <trkpt lat="45.35957" lon="5.79999">
        <ele>1144.8</ele>
        <time>2020-06-27T13:24:18.935Z</time>
      </trkpt>
      <trkpt lat="45.35927" lon="5.79984">
        <ele>1141.1</ele>
        <time>2020-06-27T13:24:23.603Z</time>
      </trkpt>
      <trkpt lat="45.35893" lon="5.79942">
        <ele>1155</ele>
        <time>2020-06-27T13:25:44.925Z</time>
      </trkpt>
      <trkpt lat="45.35872" lon="5.79823">
        <ele>1114.9</ele>
        <time>2020-06-27T13:25:57.582Z</time>
      </trkpt>
      <trkpt lat="45.35851" lon="5.79747">
        <ele>1107</ele>
        <time>2020-06-27T13:26:06.007Z</time>
      </trkpt>
      <trkpt lat="45.35814" lon="5.79687">
        <ele>1113.2</ele>
        <time>2020-06-27T13:27:22.128Z</time>
      </trkpt>
      <trkpt lat="45.35752" lon="5.79659">
        <ele>1107</ele>
        <time>2020-06-27T13:27:31.677Z</time>
      </trkpt>
      <trkpt lat="45.35695" lon="5.79632">
        <ele>1108</ele>
        <time>2020-06-27T13:28:04.871Z</time>
      </trkpt>
      <trkpt lat="45.3565" lon="5.7955">
        <ele>1101.7</ele>
        <time>2020-06-27T13:28:15.605Z</time>
      </trkpt>
      <trkpt lat="45.35607" lon="5.79526">
        <ele>1106</ele>
        <time>2020-06-27T13:29:08.308Z</time>
      </trkpt>
      <trkpt lat="45.35522" lon="5.79483">
        <ele>1108.9</ele>
        <time>2020-06-27T13:30:08.184Z</time>
      </trkpt>
      <trkpt lat="45.35451" lon="5.79404">
        <ele>1079.7</ele>
        <time>2020-06-27T13:30:21.416Z</time>
      </trkpt>
      <trkpt lat="45.35379" lon="5.79389">
        <ele>1085</ele>
        <time>2020-06-27T13:31:31.484Z</time>
      </trkpt>
      <trkpt lat="45.35306" lon="5.7938">
        <ele>1072.5</ele>
        <time>2020-06-27T13:31:42.241Z</time>
      </trkpt>
      <trkpt lat="45.35238" lon="5.79374">
        <ele>1043.3</ele>
        <time>2020-06-27T13:31:52.244Z</time>
      </trkpt>
      <trkpt lat="45.35185" lon="5.79426">
        <ele>1051.1</ele>
        <time>2020-06-27T13:33:31.008Z</time>
      </trkpt>
      <trkpt lat="45.35144" lon="5.79474">
        <ele>1039.5</ele>
        <time>2020-06-27T13:33:38.802Z</time>
      </trkpt>
      <trkpt lat="45.35108" lon="5.79474">
        <ele>1031.1</ele>
        <time>2020-06-27T13:33:44.087Z</time>
      </trkpt>
      <trkpt lat="45.35063" lon="5.79477">
        <ele>1005.4</ele>
        <time>2020-06-27T13:33:50.701Z</time>
      </trkpt>
      <trkpt lat="45.3505" lon="5.7949">
        <ele>1002.7</ele>
        <time>2020-06-27T13:33:53.034Z</time>
      </trkpt>
      <trkpt lat="45.35039" lon="5.79462">
        <ele>996.9</ele>
        <time>2020-06-27T13:33:56.344Z</time>
      </trkpt>
      <trkpt lat="45.35055" lon="5.79436">
        <ele>999</ele>
        <time>2020-06-27T13:34:22.474Z</time>
      </trkpt>
      <trkpt lat="45.35028" lon="5.79444">
        <ele>992.7</ele>
        <time>2020-06-27T13:34:26.523Z</time>
      </trkpt>
      <trkpt lat="45.35034" lon="5.79419">
        <ele>992</ele>
        <time>2020-06-27T13:34:29.722Z</time>
      </trkpt>
      <trkpt lat="45.35009" lon="5.79438">
        <ele>987</ele>
        <time>2020-06-27T13:34:33.883Z</time>
      </trkpt>
      <trkpt lat="45.35016" lon="5.79413">
        <ele>976</ele>
        <time>2020-06-27T13:34:36.660Z</time>
      </trkpt>
      <trkpt lat="45.34988" lon="5.79439">
        <ele>962</ele>
        <time>2020-06-27T13:34:41.569Z</time>
      </trkpt>
      <trkpt lat="45.34991" lon="5.79367">
        <ele>949</ele>
        <time>2020-06-27T13:34:49.010Z</time>
      </trkpt>
      <trkpt lat="45.35006" lon="5.7935">
        <ele>966.2</ele>
        <time>2020-06-27T13:35:23.648Z</time>
      </trkpt>
      <trkpt lat="45.35022" lon="5.79286">
        <ele>940</ele>
        <time>2020-06-27T13:35:30.657Z</time>
      </trkpt>
      <trkpt lat="45.35062" lon="5.79275">
        <ele>942.3</ele>
        <time>2020-06-27T13:36:05.490Z</time>
      </trkpt>
      <trkpt lat="45.3511" lon="5.7921">
        <ele>930.3</ele>
        <time>2020-06-27T13:36:15.218Z</time>
      </trkpt>
      <trkpt lat="45.35102" lon="5.79186">
        <ele>920.7</ele>
        <time>2020-06-27T13:36:17.958Z</time>
      </trkpt>
      <trkpt lat="45.35025" lon="5.79195">
        <ele>898.1</ele>
        <time>2020-06-27T13:36:29.301Z</time>
      </trkpt>
      <trkpt lat="45.35074" lon="5.79092">
        <ele>870.4</ele>
        <time>2020-06-27T13:36:42.134Z</time>
      </trkpt>
      <trkpt lat="45.35136" lon="5.78958">
        <ele>863.9</ele>
        <time>2020-06-27T13:36:58.410Z</time>
      </trkpt>
      <trkpt lat="45.34972" lon="5.79013">
        <ele>846.7</ele>
        <time>2020-06-27T13:37:23.147Z</time>
      </trkpt>
      <trkpt lat="45.34925" lon="5.79143">
        <ele>853.8</ele>
        <time>2020-06-27T13:38:59.314Z</time>
      </trkpt>
      <trkpt lat="45.3485" lon="5.79192">
        <ele>846.4</ele>
        <time>2020-06-27T13:39:11.430Z</time>
      </trkpt>
      <trkpt lat="45.34838" lon="5.79245">
        <ele>857</ele>
        <time>2020-06-27T13:40:22.116Z</time>
      </trkpt>
      <trkpt lat="45.3479" lon="5.79305">
        <ele>843.7</ele>
        <time>2020-06-27T13:40:31.496Z</time>
      </trkpt>
      <trkpt lat="45.34778" lon="5.79348">
        <ele>848</ele>
        <time>2020-06-27T13:41:29.235Z</time>
      </trkpt>
      <trkpt lat="45.34756" lon="5.79395">
        <ele>846.2</ele>
        <time>2020-06-27T13:41:35.601Z</time>
      </trkpt>
      <trkpt lat="45.34734" lon="5.79478">
        <ele>837.3</ele>
        <time>2020-06-27T13:41:44.754Z</time>
      </trkpt>
      <trkpt lat="45.34737" lon="5.79511">
        <ele>855</ele>
        <time>2020-06-27T13:42:26.995Z</time>
      </trkpt>
      <trkpt lat="45.34714" lon="5.7955">
        <ele>852.7</ele>
        <time>2020-06-27T13:42:31.896Z</time>
      </trkpt>
      <trkpt lat="45.34658" lon="5.79611">
        <ele>833.6</ele>
        <time>2020-06-27T13:42:42.251Z</time>
      </trkpt>
      <trkpt lat="45.34624" lon="5.7964">
        <ele>828</ele>
        <time>2020-06-27T13:42:48.070Z</time>
      </trkpt>
      <trkpt lat="45.34601" lon="5.79681">
        <ele>831.9</ele>
        <time>2020-06-27T13:43:35.649Z</time>
      </trkpt>
      <trkpt lat="45.34554" lon="5.79772">
        <ele>819</ele>
        <time>2020-06-27T13:43:47.301Z</time>
      </trkpt>
      <trkpt lat="45.34503" lon="5.79839">
        <ele>812</ele>
        <time>2020-06-27T13:43:57.492Z</time>
      </trkpt>
      <trkpt lat="45.34436" lon="5.79887">
        <ele>827.7</ele>
        <time>2020-06-27T13:46:12.989Z</time>
      </trkpt>
      <trkpt lat="45.34413" lon="5.79838">
        <ele>825</ele>
        <time>2020-06-27T13:46:18.622Z</time>
      </trkpt>
      <trkpt lat="45.34441" lon="5.79769">
        <ele>801.6</ele>
        <time>2020-06-27T13:46:26.843Z</time>
      </trkpt>
      <trkpt lat="45.34466" lon="5.79681">
        <ele>794.1</ele>
        <time>2020-06-27T13:46:36.637Z</time>
      </trkpt>
      <trkpt lat="45.34461" lon="5.79583">
        <ele>812.9</ele>
        <time>2020-06-27T13:48:41.378Z</time>
      </trkpt>
      <trkpt lat="45.34496" lon="5.79505">
        <ele>798.2</ele>
        <time>2020-06-27T13:48:50.927Z</time>
      </trkpt>
      <trkpt lat="45.34537" lon="5.79459">
        <ele>786.4</ele>
        <time>2020-06-27T13:48:58.592Z</time>
      </trkpt>
      <trkpt lat="45.34534" lon="5.79414">
        <ele>796.7</ele>
        <time>2020-06-27T13:49:55.977Z</time>
      </trkpt>
      <trkpt lat="45.34528" lon="5.79365">
        <ele>801.6</ele>
        <time>2020-06-27T13:50:59.120Z</time>
      </trkpt>
      <trkpt lat="45.34539" lon="5.79319">
        <ele>807</ele>
        <time>2020-06-27T13:52:00.805Z</time>
      </trkpt>
      <trkpt lat="45.34513" lon="5.79341">
        <ele>814.5</ele>
        <time>2020-06-27T13:52:55.445Z</time>
      </trkpt>
      <trkpt lat="45.34513" lon="5.79195">
        <ele>826.6</ele>
        <time>2020-06-27T13:55:26.842Z</time>
      </trkpt>
      <trkpt lat="45.34507" lon="5.79218">
        <ele>825.3</ele>
        <time>2020-06-27T13:55:29.374Z</time>
      </trkpt>
      <trkpt lat="45.345" lon="5.79188">
        <ele>861.6</ele>
        <time>2020-06-27T13:56:09.503Z</time>
      </trkpt>
      <trkpt lat="45.34479" lon="5.79284">
        <ele>854.7</ele>
        <time>2020-06-27T13:56:19.877Z</time>
      </trkpt>
      <trkpt lat="45.34474" lon="5.7914">
        <ele>877.3</ele>
        <time>2020-06-27T13:59:22.912Z</time>
      </trkpt>
      <trkpt lat="45.34433" lon="5.7919">
        <ele>884.3</ele>
        <time>2020-06-27T14:00:55.367Z</time>
      </trkpt>
      <trkpt lat="45.34433" lon="5.79132">
        <ele>890.9</ele>
        <time>2020-06-27T14:02:09.000Z</time>
      </trkpt>
      <trkpt lat="45.34403" lon="5.79134">
        <ele>928.5</ele>
        <time>2020-06-27T14:03:03.248Z</time>
      </trkpt>
      <trkpt lat="45.34397" lon="5.79149">
        <ele>927.3</ele>
        <time>2020-06-27T14:03:05.029Z</time>
      </trkpt>
      <trkpt lat="45.3439" lon="5.79125">
        <ele>933</ele>
        <time>2020-06-27T14:03:38.017Z</time>
      </trkpt>
      <trkpt lat="45.34367" lon="5.79155">
        <ele>940.6</ele>
        <time>2020-06-27T14:04:34.378Z</time>
      </trkpt>
      <trkpt lat="45.34373" lon="5.79085">
        <ele>939.8</ele>
        <time>2020-06-27T14:04:45.181Z</time>
      </trkpt>
      <trkpt lat="45.34335" lon="5.79121">
        <ele>948.4</ele>
        <time>2020-06-27T14:06:07.644Z</time>
      </trkpt>
      <trkpt lat="45.3435" lon="5.79055">
        <ele>956.3</ele>
        <time>2020-06-27T14:07:35.706Z</time>
      </trkpt>
      <trkpt lat="45.34337" lon="5.79029">
        <ele>962.3</ele>
        <time>2020-06-27T14:08:16.215Z</time>
      </trkpt>
      <trkpt lat="45.34311" lon="5.79033">
        <ele>994.6</ele>
        <time>2020-06-27T14:09:03.452Z</time>
      </trkpt>
      <trkpt lat="45.34298" lon="5.79104">
        <ele>987.9</ele>
        <time>2020-06-27T14:09:11.022Z</time>
      </trkpt>
      <trkpt lat="45.34286" lon="5.79037">
        <ele>1001.6</ele>
        <time>2020-06-27T14:10:38.801Z</time>
      </trkpt>
      <trkpt lat="45.34258" lon="5.79093">
        <ele>1006.8</ele>
        <time>2020-06-27T14:11:42.365Z</time>
      </trkpt>
      <trkpt lat="45.34243" lon="5.78956">
        <ele>1056.5</ele>
        <time>2020-06-27T14:14:38.395Z</time>
      </trkpt>
      <trkpt lat="45.34224" lon="5.78975">
        <ele>1057.7</ele>
        <time>2020-06-27T14:14:57.622Z</time>
      </trkpt>
      <trkpt lat="45.34179" lon="5.79115">
        <ele>1095.8</ele>
        <time>2020-06-27T14:18:13.067Z</time>
      </trkpt>
      <trkpt lat="45.34172" lon="5.78939">
        <ele>1079.6</ele>
        <time>2020-06-27T14:18:31.258Z</time>
      </trkpt>
      <trkpt lat="45.34224" lon="5.78819">
        <ele>1079.9</ele>
        <time>2020-06-27T14:19:18.983Z</time>
      </trkpt>
      <trkpt lat="45.34212" lon="5.78795">
        <ele>1083.5</ele>
        <time>2020-06-27T14:19:56.376Z</time>
      </trkpt>
      <trkpt lat="45.34106" lon="5.789">
        <ele>1144.1</ele>
        <time>2020-06-27T14:23:49.678Z</time>
      </trkpt>
      <trkpt lat="45.34096" lon="5.7881">
        <ele>1139.7</ele>
        <time>2020-06-27T14:23:59.080Z</time>
      </trkpt>
      <trkpt lat="45.34056" lon="5.78769">
        <ele>1185.3</ele>
        <time>2020-06-27T14:25:28.130Z</time>
      </trkpt>
      <trkpt lat="45.34052" lon="5.78821">
        <ele>1195.3</ele>
        <time>2020-06-27T14:26:34.544Z</time>
      </trkpt>
      <trkpt lat="45.33978" lon="5.78705">
        <ele>1259.4</ele>
        <time>2020-06-27T14:29:53.433Z</time>
      </trkpt>
      <trkpt lat="45.33945" lon="5.7863">
        <ele>1240.9</ele>
        <time>2020-06-27T14:30:02.564Z</time>
      </trkpt>
      <trkpt lat="45.33937" lon="5.78578">
        <ele>1217</ele>
        <time>2020-06-27T14:30:08.057Z</time>
      </trkpt>
      <trkpt lat="45.33916" lon="5.78595">
        <ele>1290.8</ele>
        <time>2020-06-27T14:30:51.700Z</time>
      </trkpt>
      <trkpt lat="45.33912" lon="5.78497">
        <ele>1233.2</ele>
        <time>2020-06-27T14:31:01.830Z</time>
      </trkpt>
      <trkpt lat="45.33896" lon="5.7846">
        <ele>1259.6</ele>
        <time>2020-06-27T14:31:56.985Z</time>
      </trkpt>
      <trkpt lat="45.33883" lon="5.78507">
        <ele>1288.1</ele>
        <time>2020-06-27T14:33:01.113Z</time>
      </trkpt>
      <trkpt lat="45.33844" lon="5.78381">
        <ele>1267</ele>
        <time>2020-06-27T14:33:15.320Z</time>
      </trkpt>
      <trkpt lat="45.3383" lon="5.78301">
        <ele>1287.8</ele>
        <time>2020-06-27T14:34:59.994Z</time>
      </trkpt>
      <trkpt lat="45.33749" lon="5.78271">
        <ele>1339.3</ele>
        <time>2020-06-27T14:37:31.179Z</time>
      </trkpt>
      <trkpt lat="45.33749" lon="5.78246">
        <ele>1310.2</ele>
        <time>2020-06-27T14:37:33.759Z</time>
      </trkpt>
      <trkpt lat="45.33604" lon="5.78113">
        <ele>1340.3</ele>
        <time>2020-06-27T14:42:45.391Z</time>
      </trkpt>
      <trkpt lat="45.33467" lon="5.77943">
        <ele>1372.8</ele>
        <time>2020-06-27T14:48:13.765Z</time>
      </trkpt>
      <trkpt lat="45.33396" lon="5.77855">
        <ele>1383.1</ele>
        <time>2020-06-27T14:50:19.978Z</time>
      </trkpt>
      <trkpt lat="45.3334" lon="5.77769">
        <ele>1350.8</ele>
        <time>2020-06-27T14:50:32.076Z</time>
      </trkpt>
      <trkpt lat="45.3328" lon="5.77748">
        <ele>1366.9</ele>
        <time>2020-06-27T14:52:23.685Z</time>
      </trkpt>
      <trkpt lat="45.33267" lon="5.77705">
        <ele>1359.7</ele>
        <time>2020-06-27T14:52:28.516Z</time>
      </trkpt>
      <trkpt lat="45.33236" lon="5.77694">
        <ele>1394.8</ele>
        <time>2020-06-27T14:53:26.226Z</time>
      </trkpt>
      <trkpt lat="45.33207" lon="5.77701">
        <ele>1410.3</ele>
        <time>2020-06-27T14:54:19.357Z</time>
      </trkpt>
      <trkpt lat="45.33162" lon="5.77632">
        <ele>1420</ele>
        <time>2020-06-27T14:56:18.871Z</time>
      </trkpt>
      <trkpt lat="45.33106" lon="5.77576">
        <ele>1394.2</ele>
        <time>2020-06-27T14:56:28.921Z</time>
      </trkpt>
      <trkpt lat="45.33065" lon="5.77529">
        <ele>1440.1</ele>
        <time>2020-06-27T14:58:04.034Z</time>
      </trkpt>
      <trkpt lat="45.33005" lon="5.77465">
        <ele>1437.7</ele>
        <time>2020-06-27T14:58:17.715Z</time>
      </trkpt>
      <trkpt lat="45.32943" lon="5.774">
        <ele>1474.2</ele>
        <time>2020-06-27T15:00:36.836Z</time>
      </trkpt>
      <trkpt lat="45.32911" lon="5.77317">
        <ele>1471.3</ele>
        <time>2020-06-27T15:00:47.685Z</time>
      </trkpt>
      <trkpt lat="45.32862" lon="5.77276">
        <ele>1485.3</ele>
        <time>2020-06-27T15:02:30.371Z</time>
      </trkpt>
      <trkpt lat="45.3281" lon="5.77248">
        <ele>1495</ele>
        <time>2020-06-27T15:04:10.802Z</time>
      </trkpt>
      <trkpt lat="45.32774" lon="5.77199">
        <ele>1496.8</ele>
        <time>2020-06-27T15:04:45.675Z</time>
      </trkpt>
      <trkpt lat="45.32746" lon="5.77156">
        <ele>1510.6</ele>
        <time>2020-06-27T15:06:00.105Z</time>
      </trkpt>
      <trkpt lat="45.32735" lon="5.77166">
        <ele>1511.7</ele>
        <time>2020-06-27T15:06:13.889Z</time>
      </trkpt>
      <trkpt lat="45.32732" lon="5.77165">
        <ele>1512.3</ele>
        <time>2020-06-27T15:06:19.454Z</time>
      </trkpt>
      <trkpt lat="45.32711" lon="5.77141">
        <ele>1516.5</ele>
        <time>2020-06-27T15:07:08.114Z</time>
      </trkpt>
      <trkpt lat="45.32672" lon="5.77141">
        <ele>1522.2</ele>
        <time>2020-06-27T15:08:18.559Z</time>
      </trkpt>
      <trkpt lat="45.32666" lon="5.7708">
        <ele>1547</ele>
        <time>2020-06-27T15:09:36.779Z</time>
      </trkpt>
      <trkpt lat="45.32642" lon="5.77047">
        <ele>1553.3</ele>
        <time>2020-06-27T15:10:37.074Z</time>
      </trkpt>
      <trkpt lat="45.32593" lon="5.77019">
        <ele>1562.6</ele>
        <time>2020-06-27T15:12:12.457Z</time>
      </trkpt>
      <trkpt lat="45.32534" lon="5.77019">
        <ele>1554.1</ele>
        <time>2020-06-27T15:12:21.119Z</time>
      </trkpt>
      <trkpt lat="45.32504" lon="5.77007">
        <ele>1557.9</ele>
        <time>2020-06-27T15:13:09.388Z</time>
      </trkpt>
      <trkpt lat="45.32487" lon="5.76968">
        <ele>1568.8</ele>
        <time>2020-06-27T15:14:07.664Z</time>
      </trkpt>
      <trkpt lat="45.32429" lon="5.76931">
        <ele>1572.7</ele>
        <time>2020-06-27T15:15:03.898Z</time>
      </trkpt>
      <trkpt lat="45.32386" lon="5.76874">
        <ele>1587.2</ele>
        <time>2020-06-27T15:16:50.071Z</time>
      </trkpt>
      <trkpt lat="45.32342" lon="5.76813">
        <ele>1618</ele>
        <time>2020-06-27T15:18:41.058Z</time>
      </trkpt>
      <trkpt lat="45.32292" lon="5.76758">
        <ele>1605.9</ele>
        <time>2020-06-27T15:18:50.338Z</time>
      </trkpt>
      <trkpt lat="45.32241" lon="5.76713">
        <ele>1616.3</ele>
        <time>2020-06-27T15:20:38.746Z</time>
      </trkpt>
      <trkpt lat="45.32192" lon="5.76634">
        <ele>1656.8</ele>
        <time>2020-06-27T15:22:52.537Z</time>
      </trkpt>
      <trkpt lat="45.32164" lon="5.7654">
        <ele>1670.4</ele>
        <time>2020-06-27T15:25:02.192Z</time>
      </trkpt>
      <trkpt lat="45.32152" lon="5.76431">
        <ele>1715.5</ele>
        <time>2020-06-27T15:27:22.313Z</time>
      </trkpt>
      <trkpt lat="45.32113" lon="5.76355">
        <ele>1727.9</ele>
        <time>2020-06-27T15:29:21.809Z</time>
      </trkpt>
      <trkpt lat="45.3206" lon="5.76245">
        <ele>1738.2</ele>
        <time>2020-06-27T15:31:28.119Z</time>
      </trkpt>
      <trkpt lat="45.32041" lon="5.76176">
        <ele>1737.3</ele>
        <time>2020-06-27T15:31:39.321Z</time>
      </trkpt>
      <trkpt lat="45.31942" lon="5.76072">
        <ele>1709.6</ele>
        <time>2020-06-27T15:31:57.390Z</time>
      </trkpt>
      <trkpt lat="45.3196" lon="5.75903">
        <ele>1689.7</ele>
        <time>2020-06-27T15:32:15.035Z</time>
      </trkpt>
      <trkpt lat="45.31902" lon="5.75781">
        <ele>1675.1</ele>
        <time>2020-06-27T15:32:30.238Z</time>
      </trkpt>
      <trkpt lat="45.31883" lon="5.7572">
        <ele>1674.3</ele>
        <time>2020-06-27T15:32:40.350Z</time>
      </trkpt>
      <trkpt lat="45.31908" lon="5.75657">
        <ele>1676.1</ele>
        <time>2020-06-27T15:33:15.595Z</time>
      </trkpt>
      <trkpt lat="45.31838" lon="5.75584">
        <ele>1674.4</ele>
        <time>2020-06-27T15:33:33.747Z</time>
      </trkpt>
      <trkpt lat="45.3181" lon="5.75563">
        <ele>1677.9</ele>
        <time>2020-06-27T15:34:16.722Z</time>
      </trkpt>
      <trkpt lat="45.31763" lon="5.75593">
        <ele>1669.3</ele>
        <time>2020-06-27T15:34:24.285Z</time>
      </trkpt>
      <trkpt lat="45.31721" lon="5.75557">
        <ele>1668</ele>
        <time>2020-06-27T15:34:33.767Z</time>
      </trkpt>
      <trkpt lat="45.31676" lon="5.75529">
        <ele>1666.8</ele>
        <time>2020-06-27T15:34:43.483Z</time>
      </trkpt>
      <trkpt lat="45.3162" lon="5.75456">
        <ele>1666.3</ele>
        <time>2020-06-27T15:35:15.800Z</time>
      </trkpt>
      <trkpt lat="45.31575" lon="5.75435">
        <ele>1656.2</ele>
        <time>2020-06-27T15:35:22.753Z</time>
      </trkpt>
      <trkpt lat="45.31516" lon="5.75408">
        <ele>1659.3</ele>
        <time>2020-06-27T15:36:13.510Z</time>
      </trkpt>
      <trkpt lat="45.31388" lon="5.75371">
        <ele>1640.8</ele>
        <time>2020-06-27T15:36:32.686Z</time>
      </trkpt>
      <trkpt lat="45.31336" lon="5.75378">
        <ele>1638.8</ele>
        <time>2020-06-27T15:36:41.636Z</time>
      </trkpt>
      <trkpt lat="45.31264" lon="5.75423">
        <ele>1629</ele>
        <time>2020-06-27T15:36:53.182Z</time>
      </trkpt>
      <trkpt lat="45.31221" lon="5.75456">
        <ele>1633.6</ele>
        <time>2020-06-27T15:37:49.474Z</time>
      </trkpt>
      <trkpt lat="45.31157" lon="5.75475">
        <ele>1634.4</ele>
        <time>2020-06-27T15:38:23.955Z</time>
      </trkpt>
      <trkpt lat="45.31085" lon="5.75444">
        <ele>1633</ele>
        <time>2020-06-27T15:38:39.870Z</time>
      </trkpt>
      <trkpt lat="45.30959" lon="5.7532">
        <ele>1623.9</ele>
        <time>2020-06-27T15:39:01.683Z</time>
      </trkpt>
      <trkpt lat="45.30897" lon="5.7522">
        <ele>1632.2</ele>
        <time>2020-06-27T15:40:44.378Z</time>
      </trkpt>
      <trkpt lat="45.3082" lon="5.75023">
        <ele>1668</ele>
        <time>2020-06-27T15:45:30.686Z</time>
      </trkpt>
      <trkpt lat="45.30767" lon="5.7488">
        <ele>1675.6</ele>
        <time>2020-06-27T15:47:15.328Z</time>
      </trkpt>
      <trkpt lat="45.30647" lon="5.74731">
        <ele>1677.4</ele>
        <time>2020-06-27T15:48:38.547Z</time>
      </trkpt>
      <trkpt lat="45.3054" lon="5.74674">
        <ele>1660.9</ele>
        <time>2020-06-27T15:48:55.322Z</time>
      </trkpt>
      <trkpt lat="45.30397" lon="5.74616">
        <ele>1639.1</ele>
        <time>2020-06-27T15:49:17.154Z</time>
      </trkpt>
      <trkpt lat="45.30254" lon="5.74528">
        <ele>1625</ele>
        <time>2020-06-27T15:49:40.030Z</time>
      </trkpt>
      <trkpt lat="45.30137" lon="5.74461">
        <ele>1613.6</ele>
        <time>2020-06-27T15:49:58.548Z</time>
      </trkpt>
      <trkpt lat="45.30039" lon="5.7441">
        <ele>1613.6</ele>
        <time>2020-06-27T15:50:47.419Z</time>
      </trkpt>
      <trkpt lat="45.29904" lon="5.74343">
        <ele>1633.1</ele>
        <time>2020-06-27T15:55:05.698Z</time>
      </trkpt>
      <trkpt lat="45.29815" lon="5.7424">
        <ele>1646.5</ele>
        <time>2020-06-27T15:57:52.742Z</time>
      </trkpt>
      <trkpt lat="45.29751" lon="5.74294">
        <ele>1656.3</ele>
        <time>2020-06-27T16:00:03.846Z</time>
      </trkpt>
      <trkpt lat="45.29708" lon="5.74367">
        <ele>1656.9</ele>
        <time>2020-06-27T16:00:38.014Z</time>
      </trkpt>
      <trkpt lat="45.2965" lon="5.74379">
        <ele>1651.7</ele>
        <time>2020-06-27T16:00:46.619Z</time>
      </trkpt>
      <trkpt lat="45.29563" lon="5.74364">
        <ele>1637.1</ele>
        <time>2020-06-27T16:00:59.485Z</time>
      </trkpt>
      <trkpt lat="45.29471" lon="5.74334">
        <ele>1620.8</ele>
        <time>2020-06-27T16:01:13.343Z</time>
      </trkpt>
      <trkpt lat="45.29347" lon="5.74373">
        <ele>1608.3</ele>
        <time>2020-06-27T16:01:31.988Z</time>
      </trkpt>
      <trkpt lat="45.29253" lon="5.7444">
        <ele>1618.6</ele>
        <time>2020-06-27T16:03:37.538Z</time>
      </trkpt>
      <trkpt lat="45.29189" lon="5.74455">
        <ele>1625.7</ele>
        <time>2020-06-27T16:05:04.550Z</time>
      </trkpt>
      <trkpt lat="45.29147" lon="5.74413">
        <ele>1619.8</ele>
        <time>2020-06-27T16:05:12.089Z</time>
      </trkpt>
      <trkpt lat="45.29104" lon="5.74337">
        <ele>1612.8</ele>
        <time>2020-06-27T16:05:22.162Z</time>
      </trkpt>
      <trkpt lat="45.29046" lon="5.74237">
        <ele>1611.2</ele>
        <time>2020-06-27T16:05:41.698Z</time>
      </trkpt>
      <trkpt lat="45.29006" lon="5.7423">
        <ele>1610.1</ele>
        <time>2020-06-27T16:05:49.424Z</time>
      </trkpt>
      <trkpt lat="45.28944" lon="5.74218">
        <ele>1606.8</ele>
        <time>2020-06-27T16:05:58.833Z</time>
      </trkpt>
      <trkpt lat="45.28899" lon="5.74234">
        <ele>1594.6</ele>
        <time>2020-06-27T16:06:05.643Z</time>
      </trkpt>
      <trkpt lat="45.28972" lon="5.74297">
        <ele>1581.2</ele>
        <time>2020-06-27T16:06:18.181Z</time>
      </trkpt>
      <trkpt lat="45.28991" lon="5.74349">
        <ele>1568.1</ele>
        <time>2020-06-27T16:06:24.233Z</time>
      </trkpt>
      <trkpt lat="45.29031" lon="5.74482">
        <ele>1573.5</ele>
        <time>2020-06-27T16:07:49.266Z</time>
      </trkpt>
      <trkpt lat="45.29048" lon="5.7454">
        <ele>1568.4</ele>
        <time>2020-06-27T16:07:55.756Z</time>
      </trkpt>
      <trkpt lat="45.29057" lon="5.74619">
        <ele>1557.6</ele>
        <time>2020-06-27T16:08:04.021Z</time>
      </trkpt>
      <trkpt lat="45.29078" lon="5.74716">
        <ele>1543.2</ele>
        <time>2020-06-27T16:08:14.504Z</time>
      </trkpt>
      <trkpt lat="45.29112" lon="5.74795">
        <ele>1551.7</ele>
        <time>2020-06-27T16:10:07.343Z</time>
      </trkpt>
      <trkpt lat="45.29108" lon="5.74862">
        <ele>1539.8</ele>
        <time>2020-06-27T16:10:14.287Z</time>
      </trkpt>
      <trkpt lat="45.29072" lon="5.74919">
        <ele>1540.8</ele>
        <time>2020-06-27T16:10:44.691Z</time>
      </trkpt>
      <trkpt lat="45.29014" lon="5.74962">
        <ele>1531</ele>
        <time>2020-06-27T16:10:54.295Z</time>
      </trkpt>
      <trkpt lat="45.28993" lon="5.74883">
        <ele>1504.7</ele>
        <time>2020-06-27T16:11:03.017Z</time>
      </trkpt>
      <trkpt lat="45.28939" lon="5.74907">
        <ele>1497.7</ele>
        <time>2020-06-27T16:11:11.324Z</time>
      </trkpt>
      <trkpt lat="45.28927" lon="5.74874">
        <ele>1493.6</ele>
        <time>2020-06-27T16:11:15.160Z</time>
      </trkpt>
      <trkpt lat="45.28856" lon="5.74895">
        <ele>1466</ele>
        <time>2020-06-27T16:11:25.807Z</time>
      </trkpt>
      <trkpt lat="45.28846" lon="5.74843">
        <ele>1454.7</ele>
        <time>2020-06-27T16:11:31.375Z</time>
      </trkpt>
      <trkpt lat="45.28792" lon="5.74892">
        <ele>1429</ele>
        <time>2020-06-27T16:11:40.781Z</time>
      </trkpt>
      <trkpt lat="45.28777" lon="5.74834">
        <ele>1417.2</ele>
        <time>2020-06-27T16:11:47.164Z</time>
      </trkpt>
      <trkpt lat="45.28745" lon="5.74834">
        <ele>1392.1</ele>
        <time>2020-06-27T16:11:51.862Z</time>
      </trkpt>
      <trkpt lat="45.28694" lon="5.74919">
        <ele>1388.1</ele>
        <time>2020-06-27T16:12:03.868Z</time>
      </trkpt>
      <trkpt lat="45.28679" lon="5.74931">
        <ele>1383.2</ele>
        <time>2020-06-27T16:12:06.395Z</time>
      </trkpt>
      <trkpt lat="45.2866" lon="5.74843">
        <ele>1344</ele>
        <time>2020-06-27T16:12:15.903Z</time>
      </trkpt>
      <trkpt lat="45.28651" lon="5.74801">
        <ele>1341.9</ele>
        <time>2020-06-27T16:12:20.438Z</time>
      </trkpt>
      <trkpt lat="45.28594" lon="5.74795">
        <ele>1336.2</ele>
        <time>2020-06-27T16:12:28.829Z</time>
      </trkpt>
      <trkpt lat="45.28542" lon="5.74801">
        <ele>1323.6</ele>
        <time>2020-06-27T16:12:36.488Z</time>
      </trkpt>
      <trkpt lat="45.28495" lon="5.74801">
        <ele>1313.4</ele>
        <time>2020-06-27T16:12:43.389Z</time>
      </trkpt>
      <trkpt lat="45.2844" lon="5.74798">
        <ele>1311.5</ele>
        <time>2020-06-27T16:12:53.176Z</time>
      </trkpt>
      <trkpt lat="45.28376" lon="5.74771">
        <ele>1301.1</ele>
        <time>2020-06-27T16:13:02.977Z</time>
      </trkpt>
      <trkpt lat="45.28329" lon="5.74749">
        <ele>1296.2</ele>
        <time>2020-06-27T16:13:10.242Z</time>
      </trkpt>
      <trkpt lat="45.28329" lon="5.74795">
        <ele>1280</ele>
        <time>2020-06-27T16:13:14.994Z</time>
      </trkpt>
      <trkpt lat="45.28322" lon="5.74837">
        <ele>1271.1</ele>
        <time>2020-06-27T16:13:19.452Z</time>
      </trkpt>
      <trkpt lat="45.28269" lon="5.74822">
        <ele>1267.2</ele>
        <time>2020-06-27T16:13:27.386Z</time>
      </trkpt>
      <trkpt lat="45.28246" lon="5.74883">
        <ele>1239.3</ele>
        <time>2020-06-27T16:13:34.535Z</time>
      </trkpt>
      <trkpt lat="45.28254" lon="5.74974">
        <ele>1230.1</ele>
        <time>2020-06-27T16:13:44.008Z</time>
      </trkpt>
      <trkpt lat="45.28239" lon="5.75035">
        <ele>1210</ele>
        <time>2020-06-27T16:13:50.683Z</time>
      </trkpt>
      <trkpt lat="45.28186" lon="5.7508">
        <ele>1201.6</ele>
        <time>2020-06-27T16:13:59.747Z</time>
      </trkpt>
      <trkpt lat="45.28132" lon="5.75092">
        <ele>1182</ele>
        <time>2020-06-27T16:14:07.771Z</time>
      </trkpt>
      <trkpt lat="45.28071" lon="5.75095">
        <ele>1172.3</ele>
        <time>2020-06-27T16:14:16.732Z</time>
      </trkpt>
      <trkpt lat="45.28034" lon="5.75077">
        <ele>1175.1</ele>
        <time>2020-06-27T16:14:54.033Z</time>
      </trkpt>
      <trkpt lat="45.27966" lon="5.75107">
        <ele>1159.4</ele>
        <time>2020-06-27T16:15:04.487Z</time>
      </trkpt>
      <trkpt lat="45.279" lon="5.75132">
        <ele>1148.6</ele>
        <time>2020-06-27T16:15:14.514Z</time>
      </trkpt>
      <trkpt lat="45.27823" lon="5.75044">
        <ele>1133.7</ele>
        <time>2020-06-27T16:15:29.021Z</time>
      </trkpt>
      <trkpt lat="45.27782" lon="5.75032">
        <ele>1132.7</ele>
        <time>2020-06-27T16:15:37.352Z</time>
      </trkpt>
      <trkpt lat="45.27712" lon="5.75044">
        <ele>1124</ele>
        <time>2020-06-27T16:15:47.704Z</time>
      </trkpt>
      <trkpt lat="45.27596" lon="5.7512">
        <ele>1106.1</ele>
        <time>2020-06-27T16:16:06.457Z</time>
      </trkpt>
      <trkpt lat="45.27554" lon="5.75147">
        <ele>1098.9</ele>
        <time>2020-06-27T16:16:13.224Z</time>
      </trkpt>
      <trkpt lat="45.27515" lon="5.75144">
        <ele>1097.8</ele>
        <time>2020-06-27T16:16:20.642Z</time>
      </trkpt>
      <trkpt lat="45.27524" lon="5.7522">
        <ele>1094.3</ele>
        <time>2020-06-27T16:16:28.056Z</time>
      </trkpt>
      <trkpt lat="45.27524" lon="5.75311">
        <ele>1087.3</ele>
        <time>2020-06-27T16:16:37.457Z</time>
      </trkpt>
      <trkpt lat="45.2752" lon="5.75368">
        <ele>1082.8</ele>
        <time>2020-06-27T16:16:43.375Z</time>
      </trkpt>
      <trkpt lat="45.27511" lon="5.75388">
        <ele>1081.5</ele>
        <time>2020-06-27T16:16:45.828Z</time>
      </trkpt>
      <trkpt lat="45.27505" lon="5.75445">
        <ele>1079.5</ele>
        <time>2020-06-27T16:16:52.109Z</time>
      </trkpt>
      <trkpt lat="45.27477" lon="5.75503">
        <ele>1070</ele>
        <time>2020-06-27T16:16:59.375Z</time>
      </trkpt>
      <trkpt lat="45.27427" lon="5.75482">
        <ele>1067</ele>
        <time>2020-06-27T16:17:06.909Z</time>
      </trkpt>
      <trkpt lat="45.27388" lon="5.75478">
        <ele>1057.5</ele>
        <time>2020-06-27T16:17:12.649Z</time>
      </trkpt>
      <trkpt lat="45.2738" lon="5.75499">
        <ele>1056.5</ele>
        <time>2020-06-27T16:17:15.039Z</time>
      </trkpt>
      <trkpt lat="45.27395" lon="5.75551">
        <ele>1052.9</ele>
        <time>2020-06-27T16:17:20.845Z</time>
      </trkpt>
      <trkpt lat="45.27368" lon="5.75551">
        <ele>1051.3</ele>
        <time>2020-06-27T16:17:24.693Z</time>
      </trkpt>
      <trkpt lat="45.27356" lon="5.75546">
        <ele>1050.6</ele>
        <time>2020-06-27T16:17:26.523Z</time>
      </trkpt>
      <trkpt lat="45.27336" lon="5.75551">
        <ele>1049.6</ele>
        <time>2020-06-27T16:17:29.670Z</time>
      </trkpt>
      <trkpt lat="45.27315" lon="5.75551">
        <ele>1043.6</ele>
        <time>2020-06-27T16:17:32.753Z</time>
      </trkpt>
      <trkpt lat="45.27249" lon="5.75527">
        <ele>1037.4</ele>
        <time>2020-06-27T16:17:42.754Z</time>
      </trkpt>
      <trkpt lat="45.27194" lon="5.75518">
        <ele>1036.4</ele>
        <time>2020-06-27T16:17:54.544Z</time>
      </trkpt>
      <trkpt lat="45.27131" lon="5.75514">
        <ele>1033.7</ele>
        <time>2020-06-27T16:18:04.897Z</time>
      </trkpt>
      <trkpt lat="45.27072" lon="5.75501">
        <ele>1024.8</ele>
        <time>2020-06-27T16:18:13.663Z</time>
      </trkpt>
      <trkpt lat="45.27037" lon="5.75476">
        <ele>1011.1</ele>
        <time>2020-06-27T16:18:19.414Z</time>
      </trkpt>
      <trkpt lat="45.27021" lon="5.75451">
        <ele>1008.7</ele>
        <time>2020-06-27T16:18:22.905Z</time>
      </trkpt>
      <trkpt lat="45.26989" lon="5.75454">
        <ele>998.1</ele>
        <time>2020-06-27T16:18:27.613Z</time>
      </trkpt>
      <trkpt lat="45.26989" lon="5.75514">
        <ele>1005.5</ele>
        <time>2020-06-27T16:19:43.885Z</time>
      </trkpt>
      <trkpt lat="45.26977" lon="5.75557">
        <ele>1006.8</ele>
        <time>2020-06-27T16:20:07.923Z</time>
      </trkpt>
      <trkpt lat="45.26919" lon="5.75533">
        <ele>1001</ele>
        <time>2020-06-27T16:20:16.791Z</time>
      </trkpt>
      <trkpt lat="45.26861" lon="5.75521">
        <ele>996.5</ele>
        <time>2020-06-27T16:20:25.396Z</time>
      </trkpt>
      <trkpt lat="45.26802" lon="5.75529">
        <ele>999.8</ele>
        <time>2020-06-27T16:21:15.803Z</time>
      </trkpt>
      <trkpt lat="45.2675" lon="5.75544">
        <ele>1003.1</ele>
        <time>2020-06-27T16:22:03.024Z</time>
      </trkpt>
      <trkpt lat="45.26699" lon="5.75482">
        <ele>993.9</ele>
        <time>2020-06-27T16:22:12.878Z</time>
      </trkpt>
      <trkpt lat="45.26649" lon="5.75458">
        <ele>1002.8</ele>
        <time>2020-06-27T16:23:48.206Z</time>
      </trkpt>
      <trkpt lat="45.26643" lon="5.75411">
        <ele>978.5</ele>
        <time>2020-06-27T16:23:53.142Z</time>
      </trkpt>
      <trkpt lat="45.26611" lon="5.75364">
        <ele>975.4</ele>
        <time>2020-06-27T16:23:59.899Z</time>
      </trkpt>
      <trkpt lat="45.26565" lon="5.75287">
        <ele>960.4</ele>
        <time>2020-06-27T16:24:10.335Z</time>
      </trkpt>
      <trkpt lat="45.26521" lon="5.75257">
        <ele>956.1</ele>
        <time>2020-06-27T16:24:17.500Z</time>
      </trkpt>
      <trkpt lat="45.26466" lon="5.75265">
        <ele>958</ele>
        <time>2020-06-27T16:24:55.284Z</time>
      </trkpt>
      <trkpt lat="45.26447" lon="5.75242">
        <ele>941.9</ele>
        <time>2020-06-27T16:24:58.949Z</time>
      </trkpt>
      <trkpt lat="45.26424" lon="5.75188">
        <ele>931.1</ele>
        <time>2020-06-27T16:25:05.471Z</time>
      </trkpt>
      <trkpt lat="45.26374" lon="5.75134">
        <ele>915</ele>
        <time>2020-06-27T16:25:14.692Z</time>
      </trkpt>
      <trkpt lat="45.26352" lon="5.75098">
        <ele>910.3</ele>
        <time>2020-06-27T16:25:19.618Z</time>
      </trkpt>
      <trkpt lat="45.26318" lon="5.75008">
        <ele>891.9</ele>
        <time>2020-06-27T16:25:30.173Z</time>
      </trkpt>
      <trkpt lat="45.26318" lon="5.74986">
        <ele>882.6</ele>
        <time>2020-06-27T16:25:32.447Z</time>
      </trkpt>
      <trkpt lat="45.26279" lon="5.74928">
        <ele>872.8</ele>
        <time>2020-06-27T16:25:40.735Z</time>
      </trkpt>
      <trkpt lat="45.26241" lon="5.74986">
        <ele>874.5</ele>
        <time>2020-06-27T16:26:16.970Z</time>
      </trkpt>
      <trkpt lat="45.26201" lon="5.74963">
        <ele>869.7</ele>
        <time>2020-06-27T16:26:23.305Z</time>
      </trkpt>
      <trkpt lat="45.26173" lon="5.74898">
        <ele>851.9</ele>
        <time>2020-06-27T16:26:31.180Z</time>
      </trkpt>
      <trkpt lat="45.26157" lon="5.74845">
        <ele>841.4</ele>
        <time>2020-06-27T16:26:37.139Z</time>
      </trkpt>
      <trkpt lat="45.26113" lon="5.74855">
        <ele>844.5</ele>
        <time>2020-06-27T16:27:18.993Z</time>
      </trkpt>
      <trkpt lat="45.26068" lon="5.7481">
        <ele>830.9</ele>
        <time>2020-06-27T16:27:27.072Z</time>
      </trkpt>
      <trkpt lat="45.25968" lon="5.74707">
        <ele>813.3</ele>
        <time>2020-06-27T16:27:45.206Z</time>
      </trkpt>
      <trkpt lat="45.25824" lon="5.74583">
        <ele>784.7</ele>
        <time>2020-06-27T16:28:09.927Z</time>
      </trkpt>
      <trkpt lat="45.25779" lon="5.74555">
        <ele>778.4</ele>
        <time>2020-06-27T16:28:17.140Z</time>
      </trkpt>
      <trkpt lat="45.25738" lon="5.74508">
        <ele>767.3</ele>
        <time>2020-06-27T16:28:24.874Z</time>
      </trkpt>
      <trkpt lat="45.25695" lon="5.74495">
        <ele>749.5</ele>
        <time>2020-06-27T16:28:31.329Z</time>
      </trkpt>
      <trkpt lat="45.25655" lon="5.7448">
        <ele>749.2</ele>
        <time>2020-06-27T16:28:48.765Z</time>
      </trkpt>
      <trkpt lat="45.25601" lon="5.74443">
        <ele>743.6</ele>
        <time>2020-06-27T16:28:57.566Z</time>
      </trkpt>
      <trkpt lat="45.25553" lon="5.74418">
        <ele>744.8</ele>
        <time>2020-06-27T16:29:28.065Z</time>
      </trkpt>
      <trkpt lat="45.25506" lon="5.74409">
        <ele>732</ele>
        <time>2020-06-27T16:29:35.027Z</time>
      </trkpt>
      <trkpt lat="45.25466" lon="5.74396">
        <ele>728.4</ele>
        <time>2020-06-27T16:29:41.052Z</time>
      </trkpt>
      <trkpt lat="45.25414" lon="5.74345">
        <ele>719.2</ele>
        <time>2020-06-27T16:29:50.329Z</time>
      </trkpt>
      <trkpt lat="45.25379" lon="5.74343">
        <ele>723.9</ele>
        <time>2020-06-27T16:30:53.600Z</time>
      </trkpt>
      <trkpt lat="45.25341" lon="5.74317">
        <ele>706.1</ele>
        <time>2020-06-27T16:30:59.792Z</time>
      </trkpt>
      <trkpt lat="45.25294" lon="5.74272">
        <ele>703.4</ele>
        <time>2020-06-27T16:31:08.700Z</time>
      </trkpt>
      <trkpt lat="45.25231" lon="5.7422">
        <ele>678.5</ele>
        <time>2020-06-27T16:31:19.397Z</time>
      </trkpt>
      <trkpt lat="45.25169" lon="5.74227">
        <ele>677.6</ele>
        <time>2020-06-27T16:31:33.238Z</time>
      </trkpt>
      <trkpt lat="45.25116" lon="5.74259">
        <ele>694.3</ele>
        <time>2020-06-27T16:33:17.260Z</time>
      </trkpt>
      <trkpt lat="45.25093" lon="5.74267">
        <ele>690.8</ele>
        <time>2020-06-27T16:33:20.736Z</time>
      </trkpt>
      <trkpt lat="45.25024" lon="5.74237">
        <ele>651.4</ele>
        <time>2020-06-27T16:33:31.330Z</time>
      </trkpt>
      <trkpt lat="45.24991" lon="5.74231">
        <ele>643.1</ele>
        <time>2020-06-27T16:33:36.214Z</time>
      </trkpt>
      <trkpt lat="45.24948" lon="5.74267">
        <ele>654.9</ele>
        <time>2020-06-27T16:35:06.372Z</time>
      </trkpt>
      <trkpt lat="45.24889" lon="5.74285">
        <ele>637.2</ele>
        <time>2020-06-27T16:35:15.231Z</time>
      </trkpt>
      <trkpt lat="45.2485" lon="5.74274">
        <ele>629.4</ele>
        <time>2020-06-27T16:35:21.069Z</time>
      </trkpt>
      <trkpt lat="45.2482" lon="5.74203">
        <ele>620.8</ele>
        <time>2020-06-27T16:35:29.628Z</time>
      </trkpt>
      <trkpt lat="45.24826" lon="5.74145">
        <ele>630.5</ele>
        <time>2020-06-27T16:36:44.177Z</time>
      </trkpt>
      <trkpt lat="45.24882" lon="5.74042">
        <ele>635</ele>
        <time>2020-06-27T16:37:58.768Z</time>
      </trkpt>
      <trkpt lat="45.24823" lon="5.74094">
        <ele>638.9</ele>
        <time>2020-06-27T16:38:58.019Z</time>
      </trkpt>
      <trkpt lat="45.24759" lon="5.74117">
        <ele>643.6</ele>
        <time>2020-06-27T16:40:00.793Z</time>
      </trkpt>
      <trkpt lat="45.24696" lon="5.74134">
        <ele>667.3</ele>
        <time>2020-06-27T16:41:56.624Z</time>
      </trkpt>
      <trkpt lat="45.24667" lon="5.74182">
        <ele>669.1</ele>
        <time>2020-06-27T16:42:29.738Z</time>
      </trkpt>
      <trkpt lat="45.2466" lon="5.74252">
        <ele>692.7</ele>
        <time>2020-06-27T16:43:59.652Z</time>
      </trkpt>
      <trkpt lat="45.24652" lon="5.74317">
        <ele>708.9</ele>
        <time>2020-06-27T16:45:23.568Z</time>
      </trkpt>
      <trkpt lat="45.24636" lon="5.74373">
        <ele>719.2</ele>
        <time>2020-06-27T16:46:40.425Z</time>
      </trkpt>
      <trkpt lat="45.24596" lon="5.74454">
        <ele>725.7</ele>
        <time>2020-06-27T16:48:00.065Z</time>
      </trkpt>
      <trkpt lat="45.24548" lon="5.74476">
        <ele>754.9</ele>
        <time>2020-06-27T16:49:31.169Z</time>
      </trkpt>
      <trkpt lat="45.24531" lon="5.74491">
        <ele>759</ele>
        <time>2020-06-27T16:50:07.319Z</time>
      </trkpt>
      <trkpt lat="45.2451" lon="5.74583">
        <ele>744.1</ele>
        <time>2020-06-27T16:50:17.316Z</time>
      </trkpt>
      <trkpt lat="45.24468" lon="5.74679">
        <ele>739.3</ele>
        <time>2020-06-27T16:50:28.559Z</time>
      </trkpt>
      <trkpt lat="45.244" lon="5.74744">
        <ele>753.2</ele>
        <time>2020-06-27T16:52:56.613Z</time>
      </trkpt>
      <trkpt lat="45.24347" lon="5.74803">
        <ele>745.7</ele>
        <time>2020-06-27T16:53:06.500Z</time>
      </trkpt>
      <trkpt lat="45.24305" lon="5.7489">
        <ele>747.7</ele>
        <time>2020-06-27T16:53:52.669Z</time>
      </trkpt>
      <trkpt lat="45.24228" lon="5.74956">
        <ele>754.8</ele>
        <time>2020-06-27T16:55:23.547Z</time>
      </trkpt>
      <trkpt lat="45.24151" lon="5.75006">
        <ele>761.5</ele>
        <time>2020-06-27T16:56:49.232Z</time>
      </trkpt>
      <trkpt lat="45.24089" lon="5.75033">
        <ele>765.3</ele>
        <time>2020-06-27T16:57:45.503Z</time>
      </trkpt>
      <trkpt lat="45.24036" lon="5.75083">
        <ele>775.5</ele>
        <time>2020-06-27T16:59:40.432Z</time>
      </trkpt>
      <trkpt lat="45.23933" lon="5.75121">
        <ele>777.4</ele>
        <time>2020-06-27T17:00:40.011Z</time>
      </trkpt>
      <trkpt lat="45.23862" lon="5.75136">
        <ele>787.4</ele>
        <time>2020-06-27T17:02:49.668Z</time>
      </trkpt>
      <trkpt lat="45.23783" lon="5.75126">
        <ele>795</ele>
        <time>2020-06-27T17:04:22.477Z</time>
      </trkpt>
      <trkpt lat="45.23725" lon="5.75096">
        <ele>795.7</ele>
        <time>2020-06-27T17:04:54.735Z</time>
      </trkpt>
      <trkpt lat="45.23646" lon="5.75111">
        <ele>802.7</ele>
        <time>2020-06-27T17:06:21.503Z</time>
      </trkpt>
      <trkpt lat="45.23555" lon="5.75085">
        <ele>803.2</ele>
        <time>2020-06-27T17:07:07.228Z</time>
      </trkpt>
      <trkpt lat="45.23515" lon="5.7508">
        <ele>802</ele>
        <time>2020-06-27T17:07:14.716Z</time>
      </trkpt>
      <trkpt lat="45.23416" lon="5.75096">
        <ele>777.4</ele>
        <time>2020-06-27T17:07:29.345Z</time>
      </trkpt>
    </trkseg>
  </trk>
</gpx>